<?xml version='1.0' encoding='UTF-8'?><gpx version="1.1" creator="JPX - https://github.com/jenetics/jpx" xmlns="http://www.topografix.com/GPX/1/1"><trk><trkseg><trkpt lat="50.60042228472886" lon="3.0965182697579654"><ele>42.0</ele><time>2026-04-19T14:50:57Z</time></trkpt><trkpt lat="50.60045289720749" lon="3.0966174853201562"><ele>42.0</ele><time>2026-04-19T14:51:19Z</time></trkpt><trkpt lat="50.600493335318" lon="3.096718184529891"><ele>42.0</ele><time>2026-04-19T14:51:22Z</time></trkpt><trkpt lat="50.60053173625438" lon="3.0968220512471785"><ele>42.0</ele><time>2026-04-19T14:51:24Z</time></trkpt><trkpt lat="50.60057348906869" lon="3.096903814186191"><ele>42.0</ele><time>2026-04-19T14:51:26Z</time></trkpt><trkpt lat="50.60061672018689" lon="3.0970559344793185"><ele>42.0</ele><time>2026-04-19T14:51:29Z</time></trkpt><trkpt lat="50.60067164334812" lon="3.097180844710982"><ele>42.0</ele><time>2026-04-19T14:51:31Z</time></trkpt><trkpt lat="50.60073897296138" lon="3.097288633602037"><ele>42.0</ele><time>2026-04-19T14:51:33Z</time></trkpt><trkpt lat="50.60077263482289" lon="3.097394008416138"><ele>42.0</ele><time>2026-04-19T14:51:35Z</time></trkpt><trkpt lat="50.60080408960323" lon="3.0975020596358425"><ele>42.0</ele><time>2026-04-19T14:51:37Z</time></trkpt><trkpt lat="50.600833781935" lon="3.0975912648656685"><ele>42.0</ele><time>2026-04-19T14:51:39Z</time></trkpt><trkpt lat="50.600922103231916" lon="3.0975732654979518"><ele>42.0</ele><time>2026-04-19T14:51:55Z</time></trkpt><trkpt lat="50.60103285258417" lon="3.097552370123908"><ele>42.25</ele><time>2026-04-19T14:51:58Z</time></trkpt><trkpt lat="50.60114519214748" lon="3.0977094551982436"><ele>42.5</ele><time>2026-04-19T14:52:01Z</time></trkpt><trkpt lat="50.60123460551134" lon="3.097811055459175"><ele>42.75</ele><time>2026-04-19T14:52:03Z</time></trkpt><trkpt lat="50.60131439124011" lon="3.097906442352436"><ele>43.0</ele><time>2026-04-19T14:52:05Z</time></trkpt><trkpt lat="50.60139774202491" lon="3.0979986218960844"><ele>43.0</ele><time>2026-04-19T14:52:07Z</time></trkpt><trkpt lat="50.601472589976666" lon="3.098091319414984"><ele>43.0</ele><time>2026-04-19T14:52:09Z</time></trkpt><trkpt lat="50.60155732035483" lon="3.098192755619444"><ele>43.0</ele><time>2026-04-19T14:52:11Z</time></trkpt><trkpt lat="50.60160639695418" lon="3.098261377199982"><ele>43.0</ele><time>2026-04-19T14:52:12Z</time></trkpt><trkpt lat="50.601681193267105" lon="3.098318144136104"><ele>43.0</ele><time>2026-04-19T14:52:14Z</time></trkpt><trkpt lat="50.60176702346481" lon="3.0984105418820738"><ele>43.0</ele><time>2026-04-19T14:52:16Z</time></trkpt><trkpt lat="50.60182274858926" lon="3.098523042104998"><ele>43.0</ele><time>2026-04-19T14:52:18Z</time></trkpt><trkpt lat="50.6018814233005" lon="3.0986155698055184"><ele>43.0</ele><time>2026-04-19T14:52:20Z</time></trkpt><trkpt lat="50.601945937270585" lon="3.0987168356152934"><ele>43.0</ele><time>2026-04-19T14:52:22Z</time></trkpt><trkpt lat="50.60200124200817" lon="3.098819447425151"><ele>43.0</ele><time>2026-04-19T14:52:24Z</time></trkpt><trkpt lat="50.60205416056943" lon="3.098921181755845"><ele>43.0</ele><time>2026-04-19T14:52:26Z</time></trkpt><trkpt lat="50.60209761967814" lon="3.0990139583555596"><ele>43.0</ele><time>2026-04-19T14:52:28Z</time></trkpt><trkpt lat="50.60214394521866" lon="3.0990901910007795"><ele>43.0</ele><time>2026-04-19T14:52:30Z</time></trkpt><trkpt lat="50.602189264166704" lon="3.099199017569797"><ele>43.0</ele><time>2026-04-19T14:52:32Z</time></trkpt><trkpt lat="50.60224967340914" lon="3.099292010022376"><ele>43.0</ele><time>2026-04-19T14:52:34Z</time></trkpt><trkpt lat="50.60230490408736" lon="3.0994070261070066"><ele>43.0</ele><time>2026-04-19T14:52:36Z</time></trkpt><trkpt lat="50.60236651694927" lon="3.0995166626494313"><ele>43.0</ele><time>2026-04-19T14:52:38Z</time></trkpt><trkpt lat="50.60242447425537" lon="3.099639271407447"><ele>43.0</ele><time>2026-04-19T14:52:40Z</time></trkpt><trkpt lat="50.602486080393845" lon="3.0997523538844036"><ele>43.0</ele><time>2026-04-19T14:52:42Z</time></trkpt><trkpt lat="50.60254988709646" lon="3.0998849944500075"><ele>43.0</ele><time>2026-04-19T14:52:44Z</time></trkpt><trkpt lat="50.60260414205539" lon="3.1000219911052875"><ele>43.0</ele><time>2026-04-19T14:52:46Z</time></trkpt><trkpt lat="50.60267256286743" lon="3.1001589335072093"><ele>43.0</ele><time>2026-04-19T14:52:48Z</time></trkpt><trkpt lat="50.60274715237098" lon="3.100294107630156"><ele>42.8</ele><time>2026-04-19T14:52:50Z</time></trkpt><trkpt lat="50.60282046268418" lon="3.1004065487510157"><ele>42.599999999999994</ele><time>2026-04-19T14:52:52Z</time></trkpt><trkpt lat="50.60280478627139" lon="3.100519890432599"><ele>42.400000000000006</ele><time>2026-04-19T14:52:54Z</time></trkpt><trkpt lat="50.60287691526957" lon="3.1005968158075965"><ele>42.2</ele><time>2026-04-19T14:52:55Z</time></trkpt><trkpt lat="50.60281792414996" lon="3.100635684022604"><ele>42.0</ele><time>2026-04-19T14:52:56Z</time></trkpt><trkpt lat="50.602938818337506" lon="3.100953750877794"><ele>42.333333333333336</ele><time>2026-04-19T14:52:59Z</time></trkpt><trkpt lat="50.60301550041762" lon="3.1010242131055765"><ele>42.666666666666664</ele><time>2026-04-19T14:53:02Z</time></trkpt><trkpt lat="50.60308531991221" lon="3.1011006124682328"><ele>43.0</ele><time>2026-04-19T14:53:04Z</time></trkpt><trkpt lat="50.603135667106656" lon="3.1011641423275633"><ele>43.33333333333333</ele><time>2026-04-19T14:53:05Z</time></trkpt><trkpt lat="50.60322910884482" lon="3.101290967431917"><ele>43.666666666666664</ele><time>2026-04-19T14:53:07Z</time></trkpt><trkpt lat="50.60327944894916" lon="3.1013661101758108"><ele>44.0</ele><time>2026-04-19T14:53:08Z</time></trkpt><trkpt lat="50.60336447814206" lon="3.101506555021505"><ele>44.0</ele><time>2026-04-19T14:53:10Z</time></trkpt><trkpt lat="50.603418971364846" lon="3.101571749860302"><ele>44.0</ele><time>2026-04-19T14:53:11Z</time></trkpt><trkpt lat="50.60345364722246" lon="3.101669438611551"><ele>44.0</ele><time>2026-04-19T14:53:12Z</time></trkpt><trkpt lat="50.60347722886177" lon="3.101841907209499"><ele>44.0</ele><time>2026-04-19T14:53:14Z</time></trkpt><trkpt lat="50.603533972176784" lon="3.1019508225700028"><ele>44.0</ele><time>2026-04-19T14:53:15Z</time></trkpt><trkpt lat="50.6035853226527" lon="3.1020276292932514"><ele>44.0</ele><time>2026-04-19T14:53:16Z</time></trkpt><trkpt lat="50.60362651298542" lon="3.1021121243126792"><ele>44.0</ele><time>2026-04-19T14:53:17Z</time></trkpt><trkpt lat="50.60367415829217" lon="3.1021825009447834"><ele>44.0</ele><time>2026-04-19T14:53:18Z</time></trkpt><trkpt lat="50.60376489239547" lon="3.1023081499329876"><ele>44.0</ele><time>2026-04-19T14:53:20Z</time></trkpt><trkpt lat="50.60386051535281" lon="3.1024319435414363"><ele>44.0</ele><time>2026-04-19T14:53:22Z</time></trkpt><trkpt lat="50.60394674695377" lon="3.1025600556877677"><ele>44.0</ele><time>2026-04-19T14:53:24Z</time></trkpt><trkpt lat="50.60403786341215" lon="3.1026624539384895"><ele>44.0</ele><time>2026-04-19T14:53:26Z</time></trkpt><trkpt lat="50.60413314903458" lon="3.1027704506719673"><ele>44.0</ele><time>2026-04-19T14:53:28Z</time></trkpt><trkpt lat="50.6042170066515" lon="3.102857999434704"><ele>44.0</ele><time>2026-04-19T14:53:30Z</time></trkpt><trkpt lat="50.60428689498459" lon="3.1029684442727383"><ele>44.0</ele><time>2026-04-19T14:53:32Z</time></trkpt><trkpt lat="50.60435546808823" lon="3.1030530363547406"><ele>44.0</ele><time>2026-04-19T14:53:34Z</time></trkpt><trkpt lat="50.604427304658756" lon="3.1031597531289616"><ele>43.0</ele><time>2026-04-19T14:53:36Z</time></trkpt><trkpt lat="50.60449051092685" lon="3.1032865670160428"><ele>42.0</ele><time>2026-04-19T14:53:38Z</time></trkpt><trkpt lat="50.60455140128249" lon="3.1033971403497076"><ele>41.0</ele><time>2026-04-19T14:53:40Z</time></trkpt><trkpt lat="50.60460098068865" lon="3.1035022068946154"><ele>40.0</ele><time>2026-04-19T14:53:42Z</time></trkpt><trkpt lat="50.60481577289075" lon="3.103854665158998"><ele>39.833333333333336</ele><time>2026-04-19T14:53:44Z</time></trkpt><trkpt lat="50.604912498803905" lon="3.1038462831028855"><ele>39.66666666666667</ele><time>2026-04-19T14:53:50Z</time></trkpt><trkpt lat="50.60497996304703" lon="3.1039021764561197"><ele>39.5</ele><time>2026-04-19T14:53:52Z</time></trkpt><trkpt lat="50.60504656551444" lon="3.1039743154984363"><ele>39.333333333333336</ele><time>2026-04-19T14:53:54Z</time></trkpt><trkpt lat="50.6051062839965" lon="3.1040430752321173"><ele>39.166666666666664</ele><time>2026-04-19T14:53:56Z</time></trkpt><trkpt lat="50.60516763230248" lon="3.104120755698701"><ele>39.0</ele><time>2026-04-19T14:53:58Z</time></trkpt><trkpt lat="50.60522623481058" lon="3.104201970522348"><ele>39.0</ele><time>2026-04-19T14:54:00Z</time></trkpt><trkpt lat="50.60527502690049" lon="3.1042749744307248"><ele>39.0</ele><time>2026-04-19T14:54:02Z</time></trkpt><trkpt lat="50.605331680315004" lon="3.1043599231729266"><ele>39.0</ele><time>2026-04-19T14:54:05Z</time></trkpt><trkpt lat="50.60539092656318" lon="3.1044508866721885"><ele>39.0</ele><time>2026-04-19T14:54:10Z</time></trkpt><trkpt lat="50.60543772871953" lon="3.104522485760209"><ele>39.0</ele><time>2026-04-19T14:54:13.999Z</time></trkpt><trkpt lat="50.605500479560995" lon="3.1045995179944366"><ele>39.0</ele><time>2026-04-19T14:54:16.999Z</time></trkpt><trkpt lat="50.605571240882476" lon="3.1046288005288467"><ele>39.0</ele><time>2026-04-19T14:54:19.999Z</time></trkpt><trkpt lat="50.60563395155768" lon="3.104683440801432"><ele>38.666666666666664</ele><time>2026-04-19T14:54:21.999Z</time></trkpt><trkpt lat="50.605671683797404" lon="3.104818319083109"><ele>38.333333333333336</ele><time>2026-04-19T14:54:24.999Z</time></trkpt><trkpt lat="50.60572097112104" lon="3.104903562609328"><ele>38.0</ele><time>2026-04-19T14:54:26.999Z</time></trkpt><trkpt lat="50.60577170049184" lon="3.1049921279978427"><ele>37.66666666666667</ele><time>2026-04-19T14:54:28.999Z</time></trkpt><trkpt lat="50.605828514047616" lon="3.105079957688867"><ele>37.333333333333336</ele><time>2026-04-19T14:54:30.999Z</time></trkpt><trkpt lat="50.60588494003128" lon="3.1051868642234703"><ele>37.0</ele><time>2026-04-19T14:54:33Z</time></trkpt><trkpt lat="50.605941033774066" lon="3.1052897884568433"><ele>37.5</ele><time>2026-04-19T14:54:35Z</time></trkpt><trkpt lat="50.60599973369681" lon="3.1053954652359512"><ele>38.0</ele><time>2026-04-19T14:54:37Z</time></trkpt><trkpt lat="50.60604320964082" lon="3.1054887332926726"><ele>38.5</ele><time>2026-04-19T14:54:39Z</time></trkpt><trkpt lat="50.60610874803832" lon="3.1055897373526404"><ele>39.0</ele><time>2026-04-19T14:54:41Z</time></trkpt><trkpt lat="50.606156175185724" lon="3.105690506694805"><ele>39.5</ele><time>2026-04-19T14:54:43Z</time></trkpt><trkpt lat="50.606215651761424" lon="3.105782069687971"><ele>40.0</ele><time>2026-04-19T14:54:45Z</time></trkpt><trkpt lat="50.60629321271764" lon="3.1058721665725737"><ele>40.0</ele><time>2026-04-19T14:54:47Z</time></trkpt><trkpt lat="50.60637080513339" lon="3.105984824432494"><ele>40.0</ele><time>2026-04-19T14:54:49Z</time></trkpt><trkpt lat="50.60646076595528" lon="3.1060930599781416"><ele>40.0</ele><time>2026-04-19T14:54:51Z</time></trkpt><trkpt lat="50.60643161375346" lon="3.106249726158888"><ele>40.0</ele><time>2026-04-19T14:54:52Z</time></trkpt><trkpt lat="50.60651139936027" lon="3.1063872163964152"><ele>40.0</ele><time>2026-04-19T14:54:54Z</time></trkpt><trkpt lat="50.6065787179028" lon="3.106503222822873"><ele>39.833333333333336</ele><time>2026-04-19T14:54:56Z</time></trkpt><trkpt lat="50.60665981749935" lon="3.1066423187920837"><ele>39.66666666666667</ele><time>2026-04-19T14:54:58Z</time></trkpt><trkpt lat="50.60673845186496" lon="3.1067789748693264"><ele>39.5</ele><time>2026-04-19T14:55:00Z</time></trkpt><trkpt lat="50.60678211711157" lon="3.106853683687981"><ele>39.333333333333336</ele><time>2026-04-19T14:55:01Z</time></trkpt><trkpt lat="50.60682726111935" lon="3.1069294004072647"><ele>39.166666666666664</ele><time>2026-04-19T14:55:02Z</time></trkpt><trkpt lat="50.606873665174824" lon="3.107005016375357"><ele>39.0</ele><time>2026-04-19T14:55:03Z</time></trkpt><trkpt lat="50.60697068228309" lon="3.107152577217571"><ele>39.0</ele><time>2026-04-19T14:55:05Z</time></trkpt><trkpt lat="50.607033354603395" lon="3.1072356821161304"><ele>39.0</ele><time>2026-04-19T14:55:06Z</time></trkpt><trkpt lat="50.60709515206822" lon="3.1073121792909113"><ele>39.0</ele><time>2026-04-19T14:55:07Z</time></trkpt><trkpt lat="50.60715336886365" lon="3.107377588124925"><ele>39.0</ele><time>2026-04-19T14:55:08Z</time></trkpt><trkpt lat="50.60722500733408" lon="3.1074573533564904"><ele>39.0</ele><time>2026-04-19T14:55:09Z</time></trkpt><trkpt lat="50.60729183556957" lon="3.107532000861912"><ele>39.0</ele><time>2026-04-19T14:55:10Z</time></trkpt><trkpt lat="50.60736063941396" lon="3.1076084630564913"><ele>39.0</ele><time>2026-04-19T14:55:11Z</time></trkpt><trkpt lat="50.607426933836045" lon="3.1076808901725723"><ele>39.0</ele><time>2026-04-19T14:55:12Z</time></trkpt><trkpt lat="50.60750018664862" lon="3.1077591219151977"><ele>39.0</ele><time>2026-04-19T14:55:13Z</time></trkpt><trkpt lat="50.60757747377604" lon="3.107838571316204"><ele>39.0</ele><time>2026-04-19T14:55:14Z</time></trkpt><trkpt lat="50.60765686357032" lon="3.1079141400561903"><ele>39.0</ele><time>2026-04-19T14:55:15Z</time></trkpt><trkpt lat="50.60774543394444" lon="3.10799087634752"><ele>38.8</ele><time>2026-04-19T14:55:16Z</time></trkpt><trkpt lat="50.607831540437715" lon="3.1080621259973835"><ele>38.599999999999994</ele><time>2026-04-19T14:55:17Z</time></trkpt><trkpt lat="50.60791312726798" lon="3.1081251891326245"><ele>38.4</ele><time>2026-04-19T14:55:18Z</time></trkpt><trkpt lat="50.60799431909649" lon="3.108184383787561"><ele>38.199999999999996</ele><time>2026-04-19T14:55:19Z</time></trkpt><trkpt lat="50.608080381560356" lon="3.108236975612415"><ele>38.0</ele><time>2026-04-19T14:55:20Z</time></trkpt><trkpt lat="50.60817081487864" lon="3.1082857927923904"><ele>38.0</ele><time>2026-04-19T14:55:21Z</time></trkpt><trkpt lat="50.608247724127544" lon="3.108324738925281"><ele>38.0</ele><time>2026-04-19T14:55:22Z</time></trkpt><trkpt lat="50.6083269670007" lon="3.108363395204371"><ele>38.0</ele><time>2026-04-19T14:55:23Z</time></trkpt><trkpt lat="50.60840919834858" lon="3.1083993460831754"><ele>38.0</ele><time>2026-04-19T14:55:24Z</time></trkpt><trkpt lat="50.6084951505777" lon="3.108430517174243"><ele>38.0</ele><time>2026-04-19T14:55:25Z</time></trkpt><trkpt lat="50.608576710013196" lon="3.1084563110333634"><ele>38.0</ele><time>2026-04-19T14:55:26Z</time></trkpt><trkpt lat="50.60864944726912" lon="3.108473587865451"><ele>37.83333333333333</ele><time>2026-04-19T14:55:27Z</time></trkpt><trkpt lat="50.60871518066166" lon="3.1084879572853548"><ele>37.666666666666664</ele><time>2026-04-19T14:55:28Z</time></trkpt><trkpt lat="50.60878186009199" lon="3.108502533502541"><ele>37.5</ele><time>2026-04-19T14:55:29Z</time></trkpt><trkpt lat="50.60890406054657" lon="3.10851500675552"><ele>37.333333333333336</ele><time>2026-04-19T14:55:31Z</time></trkpt><trkpt lat="50.609014405564736" lon="3.10854555779186"><ele>37.16666666666667</ele><time>2026-04-19T14:55:33Z</time></trkpt><trkpt lat="50.609088885987624" lon="3.1085828906211934"><ele>37.0</ele><time>2026-04-19T14:55:37Z</time></trkpt><trkpt lat="50.60910596243936" lon="3.1086831535631996"><ele>37.0</ele><time>2026-04-19T14:55:42Z</time></trkpt><trkpt lat="50.60915984028749" lon="3.108743881223898"><ele>37.0</ele><time>2026-04-19T14:55:45Z</time></trkpt><trkpt lat="50.60920959272061" lon="3.1088072560166387"><ele>37.0</ele><time>2026-04-19T14:56:11Z</time></trkpt><trkpt lat="50.609215540773405" lon="3.108911304458168"><ele>37.0</ele><time>2026-04-19T14:56:13Z</time></trkpt><trkpt lat="50.6092573005831" lon="3.1090073561837075"><ele>37.0</ele><time>2026-04-19T14:56:15Z</time></trkpt><trkpt lat="50.609277029568034" lon="3.1091580033281376"><ele>37.0</ele><time>2026-04-19T14:56:16.999Z</time></trkpt><trkpt lat="50.60925741328498" lon="3.109302328372285"><ele>37.4</ele><time>2026-04-19T14:56:18.999Z</time></trkpt><trkpt lat="50.60921384366976" lon="3.1093743490268615"><ele>37.800000000000004</ele><time>2026-04-19T14:56:19.999Z</time></trkpt><trkpt lat="50.609134870684784" lon="3.109491596389641"><ele>38.2</ele><time>2026-04-19T14:56:21.999Z</time></trkpt><trkpt lat="50.6090905657687" lon="3.1095641889728163"><ele>38.6</ele><time>2026-04-19T14:56:22.999Z</time></trkpt><trkpt lat="50.60905436979531" lon="3.109743075420762"><ele>39.0</ele><time>2026-04-19T14:56:24.999Z</time></trkpt><trkpt lat="50.609011464541794" lon="3.109913190793192"><ele>39.0</ele><time>2026-04-19T14:56:26.999Z</time></trkpt><trkpt lat="50.60896949554866" lon="3.1100746148624023"><ele>39.0</ele><time>2026-04-19T14:56:28.999Z</time></trkpt><trkpt lat="50.60896635533488" lon="3.1102398094330215"><ele>39.0</ele><time>2026-04-19T14:56:30.999Z</time></trkpt><trkpt lat="50.608960251807915" lon="3.1103786472581345"><ele>39.0</ele><time>2026-04-19T14:56:32.999Z</time></trkpt><trkpt lat="50.60891660232964" lon="3.1104970841314388"><ele>39.0</ele><time>2026-04-19T14:56:34.999Z</time></trkpt><trkpt lat="50.60889955477909" lon="3.1106006123622425"><ele>39.0</ele><time>2026-04-19T14:56:36.999Z</time></trkpt><trkpt lat="50.6089589455945" lon="3.1103865044909167"><ele>39.0</ele><time>2026-04-19T14:56:59Z</time></trkpt><trkpt lat="50.608988751975815" lon="3.1102451929820507"><ele>39.0</ele><time>2026-04-19T14:57:02Z</time></trkpt><trkpt lat="50.60899031569965" lon="3.1101306136710316"><ele>39.0</ele><time>2026-04-19T14:57:04Z</time></trkpt><trkpt lat="50.60901279314473" lon="3.109987190917515"><ele>39.0</ele><time>2026-04-19T14:57:06Z</time></trkpt><trkpt lat="50.609041815736745" lon="3.1098383778792624"><ele>39.0</ele><time>2026-04-19T14:57:08Z</time></trkpt><trkpt lat="50.60907388623803" lon="3.109729899161417"><ele>39.0</ele><time>2026-04-19T14:57:10Z</time></trkpt><trkpt lat="50.60911114453831" lon="3.109601177660931"><ele>39.0</ele><time>2026-04-19T14:57:12Z</time></trkpt><trkpt lat="50.609145402124746" lon="3.109468886061585"><ele>39.0</ele><time>2026-04-19T14:57:14Z</time></trkpt><trkpt lat="50.60920037692417" lon="3.1093693668718836"><ele>39.0</ele><time>2026-04-19T14:57:16Z</time></trkpt><trkpt lat="50.60924846539089" lon="3.1093033705637243"><ele>39.0</ele><time>2026-04-19T14:57:18Z</time></trkpt><trkpt lat="50.6093237582546" lon="3.1093482125632335"><ele>39.0</ele><time>2026-04-19T14:57:21Z</time></trkpt><trkpt lat="50.60940791156565" lon="3.109394890479238"><ele>39.0</ele><time>2026-04-19T14:57:24Z</time></trkpt><trkpt lat="50.60948720645485" lon="3.109371284255247"><ele>39.0</ele><time>2026-04-19T14:57:26Z</time></trkpt><trkpt lat="50.60952622335637" lon="3.1092528002635467"><ele>39.0</ele><time>2026-04-19T14:57:28Z</time></trkpt><trkpt lat="50.60959180696636" lon="3.1091984646230535"><ele>39.0</ele><time>2026-04-19T14:57:30Z</time></trkpt><trkpt lat="50.609666697441476" lon="3.1091887234218447"><ele>39.0</ele><time>2026-04-19T14:57:32Z</time></trkpt><trkpt lat="50.60973504094962" lon="3.109135905720439"><ele>39.0</ele><time>2026-04-19T14:57:34Z</time></trkpt><trkpt lat="50.60980003609817" lon="3.1090877336795355"><ele>39.0</ele><time>2026-04-19T14:57:36Z</time></trkpt><trkpt lat="50.60986231223051" lon="3.109067752826392"><ele>39.0</ele><time>2026-04-19T14:57:38Z</time></trkpt><trkpt lat="50.60993302912064" lon="3.1089809555344377"><ele>39.0</ele><time>2026-04-19T14:57:42Z</time></trkpt><trkpt lat="50.610011644091614" lon="3.108995367694515"><ele>39.0</ele><time>2026-04-19T14:57:45Z</time></trkpt><trkpt lat="50.61010128214623" lon="3.109036623231248"><ele>39.0</ele><time>2026-04-19T14:57:48Z</time></trkpt><trkpt lat="50.610182607199974" lon="3.109069436406109"><ele>39.4</ele><time>2026-04-19T14:57:50Z</time></trkpt><trkpt lat="50.61027957556104" lon="3.1091207141692876"><ele>39.8</ele><time>2026-04-19T14:57:52Z</time></trkpt><trkpt lat="50.61037069504695" lon="3.109162862011037"><ele>40.199999999999996</ele><time>2026-04-19T14:57:54Z</time></trkpt><trkpt lat="50.6104586028659" lon="3.1092159788523115"><ele>40.599999999999994</ele><time>2026-04-19T14:57:56Z</time></trkpt><trkpt lat="50.61053925329644" lon="3.109257356345121"><ele>41.0</ele><time>2026-04-19T14:57:58Z</time></trkpt><trkpt lat="50.61061610930606" lon="3.109312064429682"><ele>41.0</ele><time>2026-04-19T14:58:00Z</time></trkpt><trkpt lat="50.61070309582923" lon="3.1093635358571494"><ele>41.0</ele><time>2026-04-19T14:58:02Z</time></trkpt><trkpt lat="50.61078450018517" lon="3.1094190881303545"><ele>41.0</ele><time>2026-04-19T14:58:04Z</time></trkpt><trkpt lat="50.610858275896916" lon="3.1094881114028867"><ele>41.0</ele><time>2026-04-19T14:58:06Z</time></trkpt><trkpt lat="50.61093071696007" lon="3.109566136124595"><ele>41.0</ele><time>2026-04-19T14:58:08Z</time></trkpt><trkpt lat="50.61100512782767" lon="3.1096371000983627"><ele>41.0</ele><time>2026-04-19T14:58:10Z</time></trkpt><trkpt lat="50.61107556453655" lon="3.109702982393908"><ele>41.0</ele><time>2026-04-19T14:58:12Z</time></trkpt><trkpt lat="50.611139810931434" lon="3.1097901181303107"><ele>41.0</ele><time>2026-04-19T14:58:14Z</time></trkpt><trkpt lat="50.61121149561886" lon="3.109887436298274"><ele>41.0</ele><time>2026-04-19T14:58:16Z</time></trkpt><trkpt lat="50.61127523336218" lon="3.109962241464736"><ele>41.0</ele><time>2026-04-19T14:58:18Z</time></trkpt><trkpt lat="50.61134986260327" lon="3.1100412083337434"><ele>41.0</ele><time>2026-04-19T14:58:20Z</time></trkpt><trkpt lat="50.61141709612378" lon="3.1101076862927672"><ele>41.0</ele><time>2026-04-19T14:58:22Z</time></trkpt><trkpt lat="50.61149742058886" lon="3.110176036562096"><ele>40.599999999999994</ele><time>2026-04-19T14:58:24Z</time></trkpt><trkpt lat="50.61157485852762" lon="3.1102515117001888"><ele>40.199999999999996</ele><time>2026-04-19T14:58:26Z</time></trkpt><trkpt lat="50.611654097899965" lon="3.110334661196072"><ele>39.8</ele><time>2026-04-19T14:58:28Z</time></trkpt><trkpt lat="50.611709805365194" lon="3.110446546907344"><ele>39.4</ele><time>2026-04-19T14:58:30Z</time></trkpt><trkpt lat="50.61176587610509" lon="3.1105708348962"><ele>39.0</ele><time>2026-04-19T14:58:32Z</time></trkpt><trkpt lat="50.61185477112176" lon="3.1106361767370854"><ele>39.0</ele><time>2026-04-19T14:58:34Z</time></trkpt><trkpt lat="50.61193281071205" lon="3.1107070116234685"><ele>39.0</ele><time>2026-04-19T14:58:36Z</time></trkpt><trkpt lat="50.61201506320369" lon="3.1107560438812354"><ele>39.0</ele><time>2026-04-19T14:58:38Z</time></trkpt><trkpt lat="50.61209947866817" lon="3.1107702753190214"><ele>39.0</ele><time>2026-04-19T14:58:40Z</time></trkpt><trkpt lat="50.6121720505455" lon="3.1108287476867678"><ele>39.0</ele><time>2026-04-19T14:58:42Z</time></trkpt><trkpt lat="50.61224686106211" lon="3.1109122353032923"><ele>39.0</ele><time>2026-04-19T14:58:44Z</time></trkpt><trkpt lat="50.61232816338486" lon="3.1109827557018264"><ele>39.0</ele><time>2026-04-19T14:58:46Z</time></trkpt><trkpt lat="50.61240510032656" lon="3.11105555699053"><ele>39.0</ele><time>2026-04-19T14:58:48Z</time></trkpt><trkpt lat="50.61248236463645" lon="3.1111213225664813"><ele>39.0</ele><time>2026-04-19T14:58:50Z</time></trkpt><trkpt lat="50.6125609938502" lon="3.1112014167667468"><ele>39.0</ele><time>2026-04-19T14:58:52Z</time></trkpt><trkpt lat="50.61263515321231" lon="3.1112805177390053"><ele>39.0</ele><time>2026-04-19T14:58:54Z</time></trkpt><trkpt lat="50.612705143329926" lon="3.111359594633531"><ele>39.0</ele><time>2026-04-19T14:58:56Z</time></trkpt><trkpt lat="50.61277812047301" lon="3.111451002627426"><ele>39.0</ele><time>2026-04-19T14:58:58Z</time></trkpt><trkpt lat="50.61285088329622" lon="3.1115387864412853"><ele>39.0</ele><time>2026-04-19T14:59:00Z</time></trkpt><trkpt lat="50.61293262195648" lon="3.1116189817494138"><ele>39.0</ele><time>2026-04-19T14:59:02Z</time></trkpt><trkpt lat="50.61301444305714" lon="3.111689966973499"><ele>39.0</ele><time>2026-04-19T14:59:04Z</time></trkpt><trkpt lat="50.61309213960261" lon="3.1117708092324223"><ele>39.0</ele><time>2026-04-19T14:59:06Z</time></trkpt><trkpt lat="50.61317584721293" lon="3.1118341244027325"><ele>39.2</ele><time>2026-04-19T14:59:08Z</time></trkpt><trkpt lat="50.613241327005696" lon="3.111922980283427"><ele>39.4</ele><time>2026-04-19T14:59:10Z</time></trkpt><trkpt lat="50.613320006487335" lon="3.1120023186718067"><ele>39.6</ele><time>2026-04-19T14:59:12Z</time></trkpt><trkpt lat="50.61339896516428" lon="3.11209489533414"><ele>39.8</ele><time>2026-04-19T14:59:14Z</time></trkpt><trkpt lat="50.613482017001694" lon="3.112169205817825"><ele>40.0</ele><time>2026-04-19T14:59:16Z</time></trkpt><trkpt lat="50.61356226906527" lon="3.1122550100662134"><ele>40.0</ele><time>2026-04-19T14:59:18Z</time></trkpt><trkpt lat="50.613644408334494" lon="3.1123348311303403"><ele>40.0</ele><time>2026-04-19T14:59:20Z</time></trkpt><trkpt lat="50.613724483966436" lon="3.112419565446872"><ele>40.0</ele><time>2026-04-19T14:59:22Z</time></trkpt><trkpt lat="50.6137971636365" lon="3.112514535677381"><ele>40.0</ele><time>2026-04-19T14:59:24Z</time></trkpt><trkpt lat="50.61387194880173" lon="3.1125937025106896"><ele>40.0</ele><time>2026-04-19T14:59:26Z</time></trkpt><trkpt lat="50.61394571810528" lon="3.112676682042843"><ele>40.0</ele><time>2026-04-19T14:59:28Z</time></trkpt><trkpt lat="50.61400484330883" lon="3.1127883879724387"><ele>40.0</ele><time>2026-04-19T14:59:30Z</time></trkpt><trkpt lat="50.61407685066174" lon="3.112901886363209"><ele>40.0</ele><time>2026-04-19T14:59:32Z</time></trkpt><trkpt lat="50.61412055236346" lon="3.113028004975636"><ele>40.0</ele><time>2026-04-19T14:59:34Z</time></trkpt><trkpt lat="50.614177350811396" lon="3.113145485412866"><ele>40.0</ele><time>2026-04-19T14:59:36Z</time></trkpt><trkpt lat="50.61424301406297" lon="3.1132556755795444"><ele>40.0</ele><time>2026-04-19T14:59:38Z</time></trkpt><trkpt lat="50.61431633389767" lon="3.11335531905069"><ele>40.0</ele><time>2026-04-19T14:59:40Z</time></trkpt><trkpt lat="50.614391145425174" lon="3.1134471293652677"><ele>40.0</ele><time>2026-04-19T14:59:42Z</time></trkpt><trkpt lat="50.61446880116322" lon="3.1135349953835085"><ele>40.0</ele><time>2026-04-19T14:59:44Z</time></trkpt><trkpt lat="50.614547171092994" lon="3.11363038211319"><ele>40.0</ele><time>2026-04-19T14:59:46Z</time></trkpt><trkpt lat="50.61464131552114" lon="3.113726365053515"><ele>40.6</ele><time>2026-04-19T14:59:48.001Z</time></trkpt><trkpt lat="50.61473093968206" lon="3.1138349849265383"><ele>41.2</ele><time>2026-04-19T14:59:50.001Z</time></trkpt><trkpt lat="50.6148143563464" lon="3.1139406037943265"><ele>41.8</ele><time>2026-04-19T14:59:52.001Z</time></trkpt><trkpt lat="50.614886621199794" lon="3.11403157151602"><ele>42.4</ele><time>2026-04-19T14:59:54.001Z</time></trkpt><trkpt lat="50.614946727751956" lon="3.1141168876842755"><ele>43.0</ele><time>2026-04-19T14:59:56.001Z</time></trkpt><trkpt lat="50.61499567527336" lon="3.1142127652426637"><ele>43.0</ele><time>2026-04-19T14:59:58.001Z</time></trkpt><trkpt lat="50.61507853477142" lon="3.1142388654631383"><ele>43.0</ele><time>2026-04-19T15:00:00.001Z</time></trkpt><trkpt lat="50.61515286738182" lon="3.114306688809696"><ele>43.0</ele><time>2026-04-19T15:00:02.001Z</time></trkpt><trkpt lat="50.61522586726319" lon="3.1144129831129375"><ele>43.0</ele><time>2026-04-19T15:00:04.001Z</time></trkpt><trkpt lat="50.61528204343513" lon="3.1145503619118564"><ele>43.0</ele><time>2026-04-19T15:00:06.001Z</time></trkpt><trkpt lat="50.615388682034634" lon="3.1146468536168297"><ele>42.4</ele><time>2026-04-19T15:00:08.001Z</time></trkpt><trkpt lat="50.61544600887734" lon="3.114691691700026"><ele>41.8</ele><time>2026-04-19T15:00:09.001Z</time></trkpt><trkpt lat="50.61554577908103" lon="3.1148056064790897"><ele>41.2</ele><time>2026-04-19T15:00:11.001Z</time></trkpt><trkpt lat="50.61562119986759" lon="3.1149284850592687"><ele>40.6</ele><time>2026-04-19T15:00:13.001Z</time></trkpt><trkpt lat="50.61570368900395" lon="3.1150665050932256"><ele>40.0</ele><time>2026-04-19T15:00:15.001Z</time></trkpt><trkpt lat="50.61578749647718" lon="3.115203332312029"><ele>39.75</ele><time>2026-04-19T15:00:17.001Z</time></trkpt><trkpt lat="50.61586804494363" lon="3.1153345283626814"><ele>39.5</ele><time>2026-04-19T15:00:19.001Z</time></trkpt><trkpt lat="50.61594267147046" lon="3.115476399084863"><ele>39.25</ele><time>2026-04-19T15:00:21.001Z</time></trkpt><trkpt lat="50.61602411101761" lon="3.1155928363330214"><ele>39.0</ele><time>2026-04-19T15:00:23.001Z</time></trkpt><trkpt lat="50.61610871675508" lon="3.115696684150136"><ele>39.0</ele><time>2026-04-19T15:00:25.001Z</time></trkpt><trkpt lat="50.61617259011318" lon="3.1157987441202963"><ele>39.0</ele><time>2026-04-19T15:00:27.001Z</time></trkpt><trkpt lat="50.6162487978154" lon="3.115904755614013"><ele>39.0</ele><time>2026-04-19T15:00:29Z</time></trkpt><trkpt lat="50.61631282178127" lon="3.1160081285121746"><ele>39.0</ele><time>2026-04-19T15:00:31Z</time></trkpt><trkpt lat="50.61637481094898" lon="3.1160934331813572"><ele>39.0</ele><time>2026-04-19T15:00:33Z</time></trkpt><trkpt lat="50.61643209485229" lon="3.116185458128346"><ele>39.0</ele><time>2026-04-19T15:00:35Z</time></trkpt><trkpt lat="50.616485504757804" lon="3.116270382499905"><ele>39.0</ele><time>2026-04-19T15:00:37Z</time></trkpt><trkpt lat="50.61653431970484" lon="3.1163467784183956"><ele>39.0</ele><time>2026-04-19T15:00:39Z</time></trkpt><trkpt lat="50.61658667394343" lon="3.116452678876183"><ele>39.0</ele><time>2026-04-19T15:00:41Z</time></trkpt><trkpt lat="50.61665105700623" lon="3.116553773839254"><ele>39.0</ele><time>2026-04-19T15:00:43Z</time></trkpt><trkpt lat="50.61671552173045" lon="3.116671423061088"><ele>39.0</ele><time>2026-04-19T15:00:45Z</time></trkpt><trkpt lat="50.61677757449353" lon="3.1167866194704583"><ele>39.0</ele><time>2026-04-19T15:00:47Z</time></trkpt><trkpt lat="50.616831574141116" lon="3.1169146353303336"><ele>39.2</ele><time>2026-04-19T15:00:49Z</time></trkpt><trkpt lat="50.61689101951928" lon="3.11702924717624"><ele>39.4</ele><time>2026-04-19T15:00:51Z</time></trkpt><trkpt lat="50.61695213773508" lon="3.117147850311168"><ele>39.6</ele><time>2026-04-19T15:00:53Z</time></trkpt><trkpt lat="50.617021327317495" lon="3.117251141350494"><ele>39.8</ele><time>2026-04-19T15:00:55Z</time></trkpt><trkpt lat="50.617067613377245" lon="3.1173701324922756"><ele>40.0</ele><time>2026-04-19T15:00:57Z</time></trkpt><trkpt lat="50.617116015079844" lon="3.1174841103835402"><ele>39.16666666666667</ele><time>2026-04-19T15:00:59Z</time></trkpt><trkpt lat="50.61716387973199" lon="3.117587264756882"><ele>38.333333333333336</ele><time>2026-04-19T15:01:01Z</time></trkpt><trkpt lat="50.61722085975195" lon="3.1176335040122547"><ele>37.5</ele><time>2026-04-19T15:01:05Z</time></trkpt><trkpt lat="50.61730469746143" lon="3.1174234507644947"><ele>36.666666666666664</ele><time>2026-04-19T15:01:11Z</time></trkpt><trkpt lat="50.61737667630927" lon="3.117463260549544"><ele>35.83333333333333</ele><time>2026-04-19T15:01:14Z</time></trkpt><trkpt lat="50.617409294060046" lon="3.1175530999808094"><ele>35.0</ele><time>2026-04-19T15:01:16Z</time></trkpt><trkpt lat="50.61745480264653" lon="3.1176358942241063"><ele>35.0</ele><time>2026-04-19T15:01:18Z</time></trkpt><trkpt lat="50.61736716110979" lon="3.117954990359534"><ele>35.0</ele><time>2026-04-19T15:01:20Z</time></trkpt><trkpt lat="50.617538009196664" lon="3.11766153603202"><ele>35.0</ele><time>2026-04-19T15:01:24Z</time></trkpt><trkpt lat="50.61756674982436" lon="3.117568995254228"><ele>35.0</ele><time>2026-04-19T15:01:26Z</time></trkpt><trkpt lat="50.61761311687116" lon="3.1174402795254856"><ele>35.0</ele><time>2026-04-19T15:01:30Z</time></trkpt><trkpt lat="50.61765565609157" lon="3.1173651744732074"><ele>35.0</ele><time>2026-04-19T15:01:32Z</time></trkpt><trkpt lat="50.61768475445761" lon="3.11724774296296"><ele>35.0</ele><time>2026-04-19T15:01:34Z</time></trkpt><trkpt lat="50.617718660208126" lon="3.1171449475080166"><ele>35.0</ele><time>2026-04-19T15:01:36Z</time></trkpt><trkpt lat="50.61776304371605" lon="3.117020644415702"><ele>35.0</ele><time>2026-04-19T15:01:38Z</time></trkpt><trkpt lat="50.617798585108325" lon="3.11689176762489"><ele>35.0</ele><time>2026-04-19T15:01:40Z</time></trkpt><trkpt lat="50.617831161275554" lon="3.1167701479027796"><ele>35.0</ele><time>2026-04-19T15:01:42Z</time></trkpt><trkpt lat="50.61785918393776" lon="3.1166519400029413"><ele>35.0</ele><time>2026-04-19T15:01:44Z</time></trkpt><trkpt lat="50.617893500740294" lon="3.116537579949599"><ele>35.0</ele><time>2026-04-19T15:01:46Z</time></trkpt><trkpt lat="50.61786576339829" lon="3.116379614395829"><ele>35.0</ele><time>2026-04-19T15:01:48Z</time></trkpt><trkpt lat="50.6178912918232" lon="3.1162644219506923"><ele>35.0</ele><time>2026-04-19T15:01:50Z</time></trkpt><trkpt lat="50.61801543501153" lon="3.116190016071317"><ele>35.0</ele><time>2026-04-19T15:01:52.001Z</time></trkpt><trkpt lat="50.61807417295189" lon="3.1161061551981577"><ele>35.0</ele><time>2026-04-19T15:01:54.001Z</time></trkpt><trkpt lat="50.618147129942244" lon="3.116049571802869"><ele>35.0</ele><time>2026-04-19T15:01:56.001Z</time></trkpt><trkpt lat="50.6182191070682" lon="3.1160222048973965"><ele>35.0</ele><time>2026-04-19T15:01:58.001Z</time></trkpt><trkpt lat="50.61828920101099" lon="3.11605106760383"><ele>35.0</ele><time>2026-04-19T15:02:00.001Z</time></trkpt><trkpt lat="50.61836146263043" lon="3.1161162744267896"><ele>35.0</ele><time>2026-04-19T15:02:02.001Z</time></trkpt><trkpt lat="50.61842593065233" lon="3.1161975670823208"><ele>35.0</ele><time>2026-04-19T15:02:04.001Z</time></trkpt><trkpt lat="50.61849010166975" lon="3.1162877901244945"><ele>35.0</ele><time>2026-04-19T15:02:06.001Z</time></trkpt><trkpt lat="50.6185601528942" lon="3.116372989595483"><ele>35.0</ele><time>2026-04-19T15:02:08.001Z</time></trkpt><trkpt lat="50.61863215909632" lon="3.116451881100105"><ele>35.0</ele><time>2026-04-19T15:02:10.001Z</time></trkpt><trkpt lat="50.61871096630542" lon="3.116521477080584"><ele>35.0</ele><time>2026-04-19T15:02:12.001Z</time></trkpt><trkpt lat="50.61879268600166" lon="3.116575977285758"><ele>34.83333333333333</ele><time>2026-04-19T15:02:14.001Z</time></trkpt><trkpt lat="50.61887613129429" lon="3.116628736473209"><ele>34.666666666666664</ele><time>2026-04-19T15:02:16.001Z</time></trkpt><trkpt lat="50.61895841187117" lon="3.1166841413565116"><ele>34.5</ele><time>2026-04-19T15:02:18.001Z</time></trkpt><trkpt lat="50.61903782258268" lon="3.1167209259713475"><ele>34.333333333333336</ele><time>2026-04-19T15:02:20.001Z</time></trkpt><trkpt lat="50.61910842079568" lon="3.116755061016101"><ele>34.16666666666667</ele><time>2026-04-19T15:02:22.001Z</time></trkpt><trkpt lat="50.61918897099812" lon="3.1168015186626827"><ele>34.0</ele><time>2026-04-19T15:02:24.001Z</time></trkpt><trkpt lat="50.619280999999575" lon="3.116847006616383"><ele>34.0</ele><time>2026-04-19T15:02:26.001Z</time></trkpt><trkpt lat="50.61938369182269" lon="3.1168915107721675"><ele>34.0</ele><time>2026-04-19T15:02:28.001Z</time></trkpt><trkpt lat="50.619480763104164" lon="3.1169332415036894"><ele>34.0</ele><time>2026-04-19T15:02:30.001Z</time></trkpt><trkpt lat="50.61957433121292" lon="3.116967197546265"><ele>34.0</ele><time>2026-04-19T15:02:32.001Z</time></trkpt><trkpt lat="50.61966291167334" lon="3.117004237375408"><ele>34.0</ele><time>2026-04-19T15:02:34.001Z</time></trkpt><trkpt lat="50.61974883959341" lon="3.1170422995127813"><ele>33.5</ele><time>2026-04-19T15:02:36Z</time></trkpt><trkpt lat="50.619837694679205" lon="3.117081485951081"><ele>33.0</ele><time>2026-04-19T15:02:38Z</time></trkpt><trkpt lat="50.61992208035597" lon="3.117120964266372"><ele>32.5</ele><time>2026-04-19T15:02:40Z</time></trkpt><trkpt lat="50.620006025483576" lon="3.1171516563678874"><ele>32.0</ele><time>2026-04-19T15:02:42Z</time></trkpt><trkpt lat="50.62009005841055" lon="3.1172014623751365"><ele>31.500000000000004</ele><time>2026-04-19T15:02:44Z</time></trkpt><trkpt lat="50.62018028874819" lon="3.1172373335616004"><ele>31.0</ele><time>2026-04-19T15:02:46Z</time></trkpt><trkpt lat="50.62026930992657" lon="3.11727737581389"><ele>30.833333333333336</ele><time>2026-04-19T15:02:48Z</time></trkpt><trkpt lat="50.62035476153712" lon="3.1173177492943"><ele>30.666666666666668</ele><time>2026-04-19T15:02:50Z</time></trkpt><trkpt lat="50.620439686218845" lon="3.1173427121836252"><ele>30.5</ele><time>2026-04-19T15:02:52Z</time></trkpt><trkpt lat="50.62052196526182" lon="3.1173876519086163"><ele>30.333333333333336</ele><time>2026-04-19T15:02:54Z</time></trkpt><trkpt lat="50.6206020531282" lon="3.11741727656205"><ele>30.166666666666668</ele><time>2026-04-19T15:02:56Z</time></trkpt><trkpt lat="50.62068023810347" lon="3.1174552725432916"><ele>30.0</ele><time>2026-04-19T15:02:58Z</time></trkpt><trkpt lat="50.62076304280959" lon="3.1174911981321807"><ele>30.0</ele><time>2026-04-19T15:03:00Z</time></trkpt><trkpt lat="50.62084607292345" lon="3.1175349749960053"><ele>30.0</ele><time>2026-04-19T15:03:02Z</time></trkpt><trkpt lat="50.62093024621841" lon="3.1175742945921607"><ele>30.0</ele><time>2026-04-19T15:03:04Z</time></trkpt><trkpt lat="50.62101096957489" lon="3.1176218771588524"><ele>30.0</ele><time>2026-04-19T15:03:06Z</time></trkpt><trkpt lat="50.62109201583463" lon="3.1176539497932843"><ele>30.0</ele><time>2026-04-19T15:03:08Z</time></trkpt><trkpt lat="50.621174838680176" lon="3.117697564082511"><ele>30.0</ele><time>2026-04-19T15:03:10Z</time></trkpt><trkpt lat="50.62126671807477" lon="3.117742000984547"><ele>30.6</ele><time>2026-04-19T15:03:12Z</time></trkpt><trkpt lat="50.62136194179535" lon="3.1177917123477927"><ele>31.2</ele><time>2026-04-19T15:03:14Z</time></trkpt><trkpt lat="50.62145634612651" lon="3.1178513086310393"><ele>31.799999999999997</ele><time>2026-04-19T15:03:16Z</time></trkpt><trkpt lat="50.62156016949627" lon="3.1179000640441443"><ele>32.4</ele><time>2026-04-19T15:03:18Z</time></trkpt><trkpt lat="50.62166365765568" lon="3.1179439431471843"><ele>33.0</ele><time>2026-04-19T15:03:20Z</time></trkpt><trkpt lat="50.621769395900564" lon="3.1180197357926693"><ele>33.0</ele><time>2026-04-19T15:03:22Z</time></trkpt><trkpt lat="50.62188274552897" lon="3.1180881206152837"><ele>33.0</ele><time>2026-04-19T15:03:24Z</time></trkpt><trkpt lat="50.62199226524454" lon="3.11818207628419"><ele>33.0</ele><time>2026-04-19T15:03:26Z</time></trkpt><trkpt lat="50.62204955901619" lon="3.118236129558709"><ele>33.0</ele><time>2026-04-19T15:03:27Z</time></trkpt><trkpt lat="50.62210639064883" lon="3.1182924308110684"><ele>33.0</ele><time>2026-04-19T15:03:28Z</time></trkpt><trkpt lat="50.622161471549205" lon="3.1183556673225"><ele>33.0</ele><time>2026-04-19T15:03:29Z</time></trkpt><trkpt lat="50.62221114867428" lon="3.1184177974591107"><ele>33.14285714285714</ele><time>2026-04-19T15:03:30Z</time></trkpt><trkpt lat="50.62226481684334" lon="3.1184874258147635"><ele>33.285714285714285</ele><time>2026-04-19T15:03:31Z</time></trkpt><trkpt lat="50.62232640604005" lon="3.118557149634176"><ele>33.42857142857143</ele><time>2026-04-19T15:03:32Z</time></trkpt><trkpt lat="50.6223826366259" lon="3.118634053632786"><ele>33.57142857142857</ele><time>2026-04-19T15:03:33Z</time></trkpt><trkpt lat="50.62243612343895" lon="3.1187161881462218"><ele>33.714285714285715</ele><time>2026-04-19T15:03:34.001Z</time></trkpt><trkpt lat="50.6224869527342" lon="3.1188087257857484"><ele>33.857142857142854</ele><time>2026-04-19T15:03:35.001Z</time></trkpt><trkpt lat="50.622539052609774" lon="3.118896878486016"><ele>34.0</ele><time>2026-04-19T15:03:36.001Z</time></trkpt><trkpt lat="50.62258910156044" lon="3.118992324079657"><ele>33.833333333333336</ele><time>2026-04-19T15:03:37.001Z</time></trkpt><trkpt lat="50.62264339901152" lon="3.1190847455992055"><ele>33.66666666666667</ele><time>2026-04-19T15:03:38.001Z</time></trkpt><trkpt lat="50.62268950768165" lon="3.119179657725771"><ele>33.5</ele><time>2026-04-19T15:03:39.001Z</time></trkpt><trkpt lat="50.62273918156891" lon="3.1192715012346577"><ele>33.333333333333336</ele><time>2026-04-19T15:03:40.001Z</time></trkpt><trkpt lat="50.6227877110754" lon="3.1193589024861024"><ele>33.166666666666664</ele><time>2026-04-19T15:03:41.001Z</time></trkpt><trkpt lat="50.62283860245281" lon="3.119447140937849"><ele>33.0</ele><time>2026-04-19T15:03:42.001Z</time></trkpt><trkpt lat="50.622887427848525" lon="3.1195366769065043"><ele>32.857142857142854</ele><time>2026-04-19T15:03:43.001Z</time></trkpt><trkpt lat="50.62293779892228" lon="3.1196185373384746"><ele>32.714285714285715</ele><time>2026-04-19T15:03:44.001Z</time></trkpt><trkpt lat="50.622994312197285" lon="3.1196987028495937"><ele>32.57142857142857</ele><time>2026-04-19T15:03:45.001Z</time></trkpt><trkpt lat="50.623048877046266" lon="3.1197743426180695"><ele>32.42857142857143</ele><time>2026-04-19T15:03:46.001Z</time></trkpt><trkpt lat="50.62310141961964" lon="3.119848539509476"><ele>32.285714285714285</ele><time>2026-04-19T15:03:47.001Z</time></trkpt><trkpt lat="50.623153719852475" lon="3.1199178008022064"><ele>32.14285714285714</ele><time>2026-04-19T15:03:48.001Z</time></trkpt><trkpt lat="50.623206534571565" lon="3.119979289670411"><ele>32.0</ele><time>2026-04-19T15:03:49.001Z</time></trkpt><trkpt lat="50.623296379023316" lon="3.120100105060591"><ele>32.2</ele><time>2026-04-19T15:03:51.001Z</time></trkpt><trkpt lat="50.62338825498143" lon="3.120198146452118"><ele>32.400000000000006</ele><time>2026-04-19T15:03:53.001Z</time></trkpt><trkpt lat="50.623485176515054" lon="3.120280218477038"><ele>32.599999999999994</ele><time>2026-04-19T15:03:55.019Z</time></trkpt><trkpt lat="50.623578349421216" lon="3.1203435014652303"><ele>32.8</ele><time>2026-04-19T15:03:57.021Z</time></trkpt><trkpt lat="50.62364157314418" lon="3.1203599360534677"><ele>33.0</ele><time>2026-04-19T15:03:58.001Z</time></trkpt><trkpt lat="50.62369193187213" lon="3.12043461871548"><ele>33.0</ele><time>2026-04-19T15:03:59.001Z</time></trkpt><trkpt lat="50.62380680025348" lon="3.1204402396432287"><ele>33.0</ele><time>2026-04-19T15:04:01.001Z</time></trkpt><trkpt lat="50.623911972014525" lon="3.120515483483656"><ele>33.0</ele><time>2026-04-19T15:04:03.001Z</time></trkpt><trkpt lat="50.62402116089949" lon="3.120538687716184"><ele>33.0</ele><time>2026-04-19T15:04:05.001Z</time></trkpt><trkpt lat="50.62412023043207" lon="3.1205463400878295"><ele>33.0</ele><time>2026-04-19T15:04:07.001Z</time></trkpt><trkpt lat="50.62421814674578" lon="3.1205912293757816"><ele>33.0</ele><time>2026-04-19T15:04:09.001Z</time></trkpt><trkpt lat="50.624284989262335" lon="3.1206127658349576"><ele>33.0</ele><time>2026-04-19T15:04:11.001Z</time></trkpt><trkpt lat="50.62434920825997" lon="3.120671417016523"><ele>33.0</ele><time>2026-04-19T15:04:13.001Z</time></trkpt><trkpt lat="50.62441956519046" lon="3.1207161205952354"><ele>33.0</ele><time>2026-04-19T15:04:15.001Z</time></trkpt><trkpt lat="50.624495756308576" lon="3.120647208360995"><ele>33.0</ele><time>2026-04-19T15:04:16.001Z</time></trkpt><trkpt lat="50.62457763934799" lon="3.1206301244809707"><ele>33.0</ele><time>2026-04-19T15:04:19.001Z</time></trkpt><trkpt lat="50.624663717981655" lon="3.1206746763299806"><ele>32.833333333333336</ele><time>2026-04-19T15:04:22.001Z</time></trkpt><trkpt lat="50.6247328863544" lon="3.1206817377054645"><ele>32.666666666666664</ele><time>2026-04-19T15:04:24.001Z</time></trkpt><trkpt lat="50.62481543364292" lon="3.120692275325366"><ele>32.5</ele><time>2026-04-19T15:04:26.001Z</time></trkpt><trkpt lat="50.62489189257303" lon="3.120693997349281"><ele>32.33333333333333</ele><time>2026-04-19T15:04:28.001Z</time></trkpt><trkpt lat="50.624982388731716" lon="3.1206997017158984"><ele>32.166666666666664</ele><time>2026-04-19T15:04:30.001Z</time></trkpt><trkpt lat="50.62505626744157" lon="3.120683525122534"><ele>32.0</ele><time>2026-04-19T15:04:32.001Z</time></trkpt><trkpt lat="50.62512887044406" lon="3.1207019311489113"><ele>31.999999999999996</ele><time>2026-04-19T15:04:34.001Z</time></trkpt><trkpt lat="50.6252233621666" lon="3.1207073868585407"><ele>32.0</ele><time>2026-04-19T15:04:36.001Z</time></trkpt><trkpt lat="50.62531245326974" lon="3.1206966616217273"><ele>32.0</ele><time>2026-04-19T15:04:38.001Z</time></trkpt><trkpt lat="50.625393908869725" lon="3.120687460484536"><ele>32.0</ele><time>2026-04-19T15:04:40.001Z</time></trkpt><trkpt lat="50.625459163878304" lon="3.1206804909862114"><ele>31.999999999999996</ele><time>2026-04-19T15:04:42.001Z</time></trkpt><trkpt lat="50.62554694349362" lon="3.1207004642259832"><ele>32.0</ele><time>2026-04-19T15:04:44.001Z</time></trkpt><trkpt lat="50.62561743415413" lon="3.1207272652379143"><ele>32.14285714285714</ele><time>2026-04-19T15:04:46.001Z</time></trkpt><trkpt lat="50.62568439426272" lon="3.1207383589450806"><ele>32.285714285714285</ele><time>2026-04-19T15:04:48.001Z</time></trkpt><trkpt lat="50.62575647957377" lon="3.120763498542205"><ele>32.42857142857143</ele><time>2026-04-19T15:04:51Z</time></trkpt><trkpt lat="50.62582209759446" lon="3.1207959809543895"><ele>32.57142857142857</ele><time>2026-04-19T15:04:53Z</time></trkpt><trkpt lat="50.625891179578026" lon="3.1208070906466254"><ele>32.714285714285715</ele><time>2026-04-19T15:04:55Z</time></trkpt><trkpt lat="50.6259653307815" lon="3.1208411601761363"><ele>32.857142857142854</ele><time>2026-04-19T15:04:57Z</time></trkpt><trkpt lat="50.6260460585007" lon="3.1208812610029315"><ele>33.0</ele><time>2026-04-19T15:04:59Z</time></trkpt><trkpt lat="50.62611809931854" lon="3.1209466415557925"><ele>33.166666666666664</ele><time>2026-04-19T15:05:01Z</time></trkpt><trkpt lat="50.62619635810205" lon="3.120984166034084"><ele>33.333333333333336</ele><time>2026-04-19T15:05:03Z</time></trkpt><trkpt lat="50.62627429333846" lon="3.1210433120294128"><ele>33.5</ele><time>2026-04-19T15:05:05Z</time></trkpt><trkpt lat="50.62635073866133" lon="3.1211030504712847"><ele>33.66666666666667</ele><time>2026-04-19T15:05:07Z</time></trkpt><trkpt lat="50.62642493341534" lon="3.1211635840789804"><ele>33.833333333333336</ele><time>2026-04-19T15:05:09Z</time></trkpt><trkpt lat="50.626514540649204" lon="3.121215631221869"><ele>34.0</ele><time>2026-04-19T15:05:11Z</time></trkpt><trkpt lat="50.62659664727867" lon="3.1212959637523756"><ele>34.0</ele><time>2026-04-19T15:05:13Z</time></trkpt><trkpt lat="50.62665225967054" lon="3.1213682635462496"><ele>34.0</ele><time>2026-04-19T15:05:15Z</time></trkpt><trkpt lat="50.62670675667923" lon="3.121423404340599"><ele>34.0</ele><time>2026-04-19T15:05:16Z</time></trkpt><trkpt lat="50.62678262747125" lon="3.1214865696525047"><ele>34.0</ele><time>2026-04-19T15:05:18Z</time></trkpt><trkpt lat="50.62686826489528" lon="3.1215714786201914"><ele>34.0</ele><time>2026-04-19T15:05:20Z</time></trkpt><trkpt lat="50.626944894839674" lon="3.121644402838346"><ele>34.0</ele><time>2026-04-19T15:05:22Z</time></trkpt><trkpt lat="50.627022711240535" lon="3.1217171044078134"><ele>33.66666666666667</ele><time>2026-04-19T15:05:24Z</time></trkpt><trkpt lat="50.62707513139569" lon="3.1218489793804878"><ele>33.333333333333336</ele><time>2026-04-19T15:05:26Z</time></trkpt><trkpt lat="50.627108105700785" lon="3.1219348633526174"><ele>33.0</ele><time>2026-04-19T15:05:29Z</time></trkpt><trkpt lat="50.62718192212301" lon="3.121898367519084"><ele>32.666666666666664</ele><time>2026-04-19T15:05:32Z</time></trkpt><trkpt lat="50.627262831458665" lon="3.1218963896414675"><ele>32.33333333333333</ele><time>2026-04-19T15:05:35Z</time></trkpt><trkpt lat="50.62736009612921" lon="3.1219029620695853"><ele>32.0</ele><time>2026-04-19T15:05:38Z</time></trkpt><trkpt lat="50.62743002385921" lon="3.121924252088293"><ele>31.999999999999996</ele><time>2026-04-19T15:05:42Z</time></trkpt><trkpt lat="50.62751737975281" lon="3.121949876559596"><ele>32.0</ele><time>2026-04-19T15:05:45Z</time></trkpt><trkpt lat="50.627610719286274" lon="3.1219647438522315"><ele>32.0</ele><time>2026-04-19T15:05:49Z</time></trkpt><trkpt lat="50.627675650743726" lon="3.1219708984061905"><ele>32.0</ele><time>2026-04-19T15:05:52.001Z</time></trkpt><trkpt lat="50.62775852679331" lon="3.121996008941526"><ele>31.999999999999996</ele><time>2026-04-19T15:05:54.001Z</time></trkpt><trkpt lat="50.62784853326268" lon="3.1219934135662264"><ele>32.0</ele><time>2026-04-19T15:05:57.001Z</time></trkpt><trkpt lat="50.62795587441661" lon="3.1219613763655354"><ele>31.0</ele><time>2026-04-19T15:06:00.001Z</time></trkpt><trkpt lat="50.628044898065326" lon="3.1219004385973235"><ele>30.000000000000004</ele><time>2026-04-19T15:06:02.001Z</time></trkpt><trkpt lat="50.62812868966858" lon="3.1218555598313413"><ele>29.000000000000004</ele><time>2026-04-19T15:06:04.001Z</time></trkpt><trkpt lat="50.62821729270909" lon="3.1218221622451625"><ele>28.0</ele><time>2026-04-19T15:06:06.001Z</time></trkpt><trkpt lat="50.62832018540332" lon="3.1217816393554165"><ele>27.0</ele><time>2026-04-19T15:06:08.001Z</time></trkpt><trkpt lat="50.62841458586841" lon="3.1217503801758917"><ele>27.0</ele><time>2026-04-19T15:06:10.001Z</time></trkpt><trkpt lat="50.62852275332471" lon="3.121718931123164"><ele>27.000000000000004</ele><time>2026-04-19T15:06:12.001Z</time></trkpt><trkpt lat="50.628616668005655" lon="3.1216877429762837"><ele>27.000000000000004</ele><time>2026-04-19T15:06:14.001Z</time></trkpt><trkpt lat="50.62870221211469" lon="3.121648527952157"><ele>27.0</ele><time>2026-04-19T15:06:16.001Z</time></trkpt><trkpt lat="50.62878046976318" lon="3.1216123424734348"><ele>27.0</ele><time>2026-04-19T15:06:18.001Z</time></trkpt><trkpt lat="50.62888107904708" lon="3.1215750330642984"><ele>27.333333333333332</ele><time>2026-04-19T15:06:20.001Z</time></trkpt><trkpt lat="50.628971321397984" lon="3.1215518697622224"><ele>27.666666666666664</ele><time>2026-04-19T15:06:22.001Z</time></trkpt><trkpt lat="50.629067292919395" lon="3.121520858759237"><ele>28.0</ele><time>2026-04-19T15:06:24.001Z</time></trkpt><trkpt lat="50.62914838855556" lon="3.1214836205245087"><ele>28.333333333333332</ele><time>2026-04-19T15:06:26.001Z</time></trkpt><trkpt lat="50.62922631257589" lon="3.121442301104464"><ele>28.666666666666664</ele><time>2026-04-19T15:06:28.001Z</time></trkpt><trkpt lat="50.62931720287561" lon="3.121418465802914"><ele>29.0</ele><time>2026-04-19T15:06:31.001Z</time></trkpt><trkpt lat="50.62938986366267" lon="3.1214046399175377"><ele>28.999999999999996</ele><time>2026-04-19T15:06:33.001Z</time></trkpt><trkpt lat="50.629466785612394" lon="3.1213736024337315"><ele>29.0</ele><time>2026-04-19T15:06:35.001Z</time></trkpt><trkpt lat="50.62953414260348" lon="3.1213671020657"><ele>29.0</ele><time>2026-04-19T15:06:37.001Z</time></trkpt><trkpt lat="50.629609039326745" lon="3.121347627074565"><ele>29.0</ele><time>2026-04-19T15:06:39.001Z</time></trkpt><trkpt lat="50.62968691886911" lon="3.1213190768700327"><ele>28.999999999999996</ele><time>2026-04-19T15:06:41.001Z</time></trkpt><trkpt lat="50.62976765840136" lon="3.1212772372979756"><ele>29.0</ele><time>2026-04-19T15:06:43.001Z</time></trkpt><trkpt lat="50.62984648464387" lon="3.1212698126456813"><ele>28.999999999999996</ele><time>2026-04-19T15:06:45.001Z</time></trkpt><trkpt lat="50.62992734939519" lon="3.1212467797416776"><ele>29.0</ele><time>2026-04-19T15:06:47Z</time></trkpt><trkpt lat="50.63001775875542" lon="3.1212085640218534"><ele>29.0</ele><time>2026-04-19T15:06:49Z</time></trkpt><trkpt lat="50.630107311752994" lon="3.1211887482187786"><ele>29.0</ele><time>2026-04-19T15:06:51Z</time></trkpt><trkpt lat="50.630180649821874" lon="3.121160889135964"><ele>28.999999999999996</ele><time>2026-04-19T15:06:53Z</time></trkpt><trkpt lat="50.63025738948816" lon="3.121132397911677"><ele>29.0</ele><time>2026-04-19T15:06:55Z</time></trkpt><trkpt lat="50.63033977241217" lon="3.121097040987701"><ele>29.166666666666664</ele><time>2026-04-19T15:06:57Z</time></trkpt><trkpt lat="50.63042310079785" lon="3.1210788809908845"><ele>29.333333333333332</ele><time>2026-04-19T15:06:59Z</time></trkpt><trkpt lat="50.63051087709184" lon="3.1210533306225594"><ele>29.5</ele><time>2026-04-19T15:07:01Z</time></trkpt><trkpt lat="50.63059725806589" lon="3.121032344816532"><ele>29.666666666666664</ele><time>2026-04-19T15:07:03Z</time></trkpt><trkpt lat="50.63068288682457" lon="3.121002422507229"><ele>29.833333333333332</ele><time>2026-04-19T15:07:05Z</time></trkpt><trkpt lat="50.63076433645857" lon="3.1209857589231444"><ele>30.0</ele><time>2026-04-19T15:07:07Z</time></trkpt><trkpt lat="50.630843767463865" lon="3.1209743971710298"><ele>30.0</ele><time>2026-04-19T15:07:09Z</time></trkpt><trkpt lat="50.63093048474566" lon="3.1209525077969493"><ele>30.0</ele><time>2026-04-19T15:07:11Z</time></trkpt><trkpt lat="50.63100237488008" lon="3.1209213313470485"><ele>30.0</ele><time>2026-04-19T15:07:13Z</time></trkpt><trkpt lat="50.63108969718779" lon="3.120921009702534"><ele>30.0</ele><time>2026-04-19T15:07:15Z</time></trkpt><trkpt lat="50.63119331761598" lon="3.120905832802918"><ele>30.0</ele><time>2026-04-19T15:07:17Z</time></trkpt><trkpt lat="50.6312759401237" lon="3.1209024265525818"><ele>30.0</ele><time>2026-04-19T15:07:19Z</time></trkpt><trkpt lat="50.63136406053751" lon="3.1208791889172414"><ele>29.833333333333332</ele><time>2026-04-19T15:07:21Z</time></trkpt><trkpt lat="50.63144452634294" lon="3.1208762323574475"><ele>29.666666666666664</ele><time>2026-04-19T15:07:23Z</time></trkpt><trkpt lat="50.63152916401899" lon="3.1208742573415496"><ele>29.5</ele><time>2026-04-19T15:07:25Z</time></trkpt><trkpt lat="50.63162262201598" lon="3.1208772922936783"><ele>29.333333333333332</ele><time>2026-04-19T15:07:27Z</time></trkpt><trkpt lat="50.631701979443115" lon="3.1208724957227814"><ele>29.166666666666664</ele><time>2026-04-19T15:07:29Z</time></trkpt><trkpt lat="50.63178962644651" lon="3.120883809999779"><ele>29.0</ele><time>2026-04-19T15:07:31Z</time></trkpt><trkpt lat="50.63187820713878" lon="3.120892673250052"><ele>29.2</ele><time>2026-04-19T15:07:33Z</time></trkpt><trkpt lat="50.63197559460774" lon="3.12090485070747"><ele>29.4</ele><time>2026-04-19T15:07:35Z</time></trkpt><trkpt lat="50.632071224649785" lon="3.1209228464212964"><ele>29.6</ele><time>2026-04-19T15:07:37Z</time></trkpt><trkpt lat="50.632160698845425" lon="3.120945767307889"><ele>29.8</ele><time>2026-04-19T15:07:39Z</time></trkpt><trkpt lat="50.632253236679276" lon="3.1209590474849556"><ele>30.0</ele><time>2026-04-19T15:07:41Z</time></trkpt><trkpt lat="50.632350709471154" lon="3.120969512888864"><ele>30.0</ele><time>2026-04-19T15:07:43Z</time></trkpt><trkpt lat="50.632434824646104" lon="3.120986326908343"><ele>30.0</ele><time>2026-04-19T15:07:45Z</time></trkpt><trkpt lat="50.63251416759958" lon="3.120992628158358"><ele>30.0</ele><time>2026-04-19T15:07:47Z</time></trkpt><trkpt lat="50.63258587545883" lon="3.1210092500320874"><ele>30.0</ele><time>2026-04-19T15:07:49Z</time></trkpt><trkpt lat="50.63264746334737" lon="3.121035204421109"><ele>30.0</ele><time>2026-04-19T15:07:52Z</time></trkpt><trkpt lat="50.6327311612827" lon="3.1210736936253882"><ele>30.0</ele><time>2026-04-19T15:08:26Z</time></trkpt><trkpt lat="50.63279515898341" lon="3.1210744883778156"><ele>29.8</ele><time>2026-04-19T15:08:28Z</time></trkpt><trkpt lat="50.63286417701349" lon="3.1210786300392566"><ele>29.6</ele><time>2026-04-19T15:08:30Z</time></trkpt><trkpt lat="50.633024746082285" lon="3.121102753760833"><ele>29.4</ele><time>2026-04-19T15:08:34Z</time></trkpt><trkpt lat="50.63313013901909" lon="3.1211365599107683"><ele>29.2</ele><time>2026-04-19T15:08:36Z</time></trkpt><trkpt lat="50.633216637576055" lon="3.121164954828688"><ele>29.0</ele><time>2026-04-19T15:08:38Z</time></trkpt><trkpt lat="50.63331069854719" lon="3.121187123805086"><ele>28.999999999999996</ele><time>2026-04-19T15:08:40Z</time></trkpt><trkpt lat="50.63338729723982" lon="3.1211983666410212"><ele>29.0</ele><time>2026-04-19T15:08:42Z</time></trkpt><trkpt lat="50.63348103597442" lon="3.1212113743188254"><ele>29.0</ele><time>2026-04-19T15:08:44Z</time></trkpt><trkpt lat="50.6335677798236" lon="3.121224004595929"><ele>29.0</ele><time>2026-04-19T15:08:46Z</time></trkpt><trkpt lat="50.63365754987935" lon="3.121235590891507"><ele>28.999999999999996</ele><time>2026-04-19T15:08:48Z</time></trkpt><trkpt lat="50.633746024869865" lon="3.121247142633486"><ele>29.0</ele><time>2026-04-19T15:08:50Z</time></trkpt><trkpt lat="50.63383058759164" lon="3.1212697966653007"><ele>28.799999999999997</ele><time>2026-04-19T15:08:52Z</time></trkpt><trkpt lat="50.63392419570362" lon="3.121288724315512"><ele>28.599999999999998</ele><time>2026-04-19T15:08:54.001Z</time></trkpt><trkpt lat="50.6340107381943" lon="3.121310376753766"><ele>28.4</ele><time>2026-04-19T15:08:56.001Z</time></trkpt><trkpt lat="50.634100974473476" lon="3.121333578249214"><ele>28.2</ele><time>2026-04-19T15:08:58.001Z</time></trkpt><trkpt lat="50.63418912465725" lon="3.1213637237139453"><ele>28.0</ele><time>2026-04-19T15:09:00.001Z</time></trkpt><trkpt lat="50.63427524757623" lon="3.121398028093886"><ele>28.000000000000004</ele><time>2026-04-19T15:09:02.001Z</time></trkpt><trkpt lat="50.634358549424" lon="3.121431285487828"><ele>28.0</ele><time>2026-04-19T15:09:04.001Z</time></trkpt><trkpt lat="50.63443868784155" lon="3.1214707476940577"><ele>28.0</ele><time>2026-04-19T15:09:06.001Z</time></trkpt><trkpt lat="50.63452327353567" lon="3.1215159076159225"><ele>28.0</ele><time>2026-04-19T15:09:08.001Z</time></trkpt><trkpt lat="50.634603751091944" lon="3.121549829897483"><ele>28.000000000000004</ele><time>2026-04-19T15:09:10Z</time></trkpt><trkpt lat="50.63468288123138" lon="3.12158683338164"><ele>28.0</ele><time>2026-04-19T15:09:12Z</time></trkpt><trkpt lat="50.634761323137745" lon="3.121617026430881"><ele>28.285714285714285</ele><time>2026-04-19T15:09:14Z</time></trkpt><trkpt lat="50.634838834679954" lon="3.121650753533678"><ele>28.57142857142857</ele><time>2026-04-19T15:09:16Z</time></trkpt><trkpt lat="50.63490558645097" lon="3.1216785341156643"><ele>28.857142857142858</ele><time>2026-04-19T15:09:18Z</time></trkpt><trkpt lat="50.63497984575092" lon="3.1216999764082014"><ele>29.142857142857142</ele><time>2026-04-19T15:09:20Z</time></trkpt><trkpt lat="50.63504743569024" lon="3.1217241101893745"><ele>29.428571428571427</ele><time>2026-04-19T15:09:22Z</time></trkpt><trkpt lat="50.635128150276685" lon="3.1217568168074297"><ele>29.714285714285715</ele><time>2026-04-19T15:09:25Z</time></trkpt><trkpt lat="50.635188709419644" lon="3.121784957961165"><ele>30.0</ele><time>2026-04-19T15:09:28Z</time></trkpt><trkpt lat="50.635261826373814" lon="3.1218044437960772"><ele>30.166666666666668</ele><time>2026-04-19T15:09:31Z</time></trkpt><trkpt lat="50.635330055101285" lon="3.121844162797858"><ele>30.333333333333336</ele><time>2026-04-19T15:09:33Z</time></trkpt><trkpt lat="50.63540974340471" lon="3.1218654136207324"><ele>30.5</ele><time>2026-04-19T15:09:35Z</time></trkpt><trkpt lat="50.63549246663778" lon="3.121880219462749"><ele>30.666666666666668</ele><time>2026-04-19T15:09:37Z</time></trkpt><trkpt lat="50.635583229223705" lon="3.1218987974424586"><ele>30.833333333333336</ele><time>2026-04-19T15:09:39Z</time></trkpt><trkpt lat="50.635676758770906" lon="3.121930923435988"><ele>31.0</ele><time>2026-04-19T15:09:41Z</time></trkpt><trkpt lat="50.635760110675825" lon="3.121948900984937"><ele>31.000000000000004</ele><time>2026-04-19T15:09:43Z</time></trkpt><trkpt lat="50.635846421616094" lon="3.1219636923921574"><ele>31.0</ele><time>2026-04-19T15:09:45Z</time></trkpt><trkpt lat="50.635928302370594" lon="3.1219866523062803"><ele>31.0</ele><time>2026-04-19T15:09:47Z</time></trkpt><trkpt lat="50.63601132847569" lon="3.1219983420970374"><ele>31.0</ele><time>2026-04-19T15:09:49Z</time></trkpt><trkpt lat="50.63609393202883" lon="3.122011391481808"><ele>31.000000000000004</ele><time>2026-04-19T15:09:51Z</time></trkpt><trkpt lat="50.636177114396666" lon="3.122022747373341"><ele>31.0</ele><time>2026-04-19T15:09:53Z</time></trkpt><trkpt lat="50.63625717794143" lon="3.1220328633125183"><ele>31.333333333333336</ele><time>2026-04-19T15:09:55Z</time></trkpt><trkpt lat="50.636334376154245" lon="3.122036857346801"><ele>31.666666666666668</ele><time>2026-04-19T15:09:57Z</time></trkpt><trkpt lat="50.636407417998434" lon="3.1220397992908295"><ele>32.0</ele><time>2026-04-19T15:09:59Z</time></trkpt><trkpt lat="50.63648356502183" lon="3.122049020757572"><ele>32.333333333333336</ele><time>2026-04-19T15:10:01Z</time></trkpt><trkpt lat="50.636557511658864" lon="3.1220607774015785"><ele>32.666666666666664</ele><time>2026-04-19T15:10:03Z</time></trkpt><trkpt lat="50.63663317170992" lon="3.122060355949176"><ele>33.0</ele><time>2026-04-19T15:10:05Z</time></trkpt><trkpt lat="50.636706478276416" lon="3.1220656119270633"><ele>33.0</ele><time>2026-04-19T15:10:07Z</time></trkpt><trkpt lat="50.636774708350885" lon="3.1220656735879664"><ele>33.0</ele><time>2026-04-19T15:10:09Z</time></trkpt><trkpt lat="50.63684394619705" lon="3.12208056350864"><ele>33.0</ele><time>2026-04-19T15:10:12Z</time></trkpt><trkpt lat="50.636910133750256" lon="3.1220649639291387"><ele>33.0</ele><time>2026-04-19T15:10:22Z</time></trkpt><trkpt lat="50.63699066072633" lon="3.1220734117072215"><ele>33.0</ele><time>2026-04-19T15:10:49.001Z</time></trkpt><trkpt lat="50.63708253477753" lon="3.1220773381829505"><ele>33.0</ele><time>2026-04-19T15:10:53.001Z</time></trkpt><trkpt lat="50.63715159161025" lon="3.122074633408171"><ele>33.0</ele><time>2026-04-19T15:10:55.001Z</time></trkpt><trkpt lat="50.63721734697753" lon="3.1220785836384337"><ele>32.833333333333336</ele><time>2026-04-19T15:10:57.001Z</time></trkpt><trkpt lat="50.63729608135446" lon="3.1220752693001765"><ele>32.666666666666664</ele><time>2026-04-19T15:10:59.001Z</time></trkpt><trkpt lat="50.63737716126046" lon="3.1220850048819258"><ele>32.5</ele><time>2026-04-19T15:11:01.001Z</time></trkpt><trkpt lat="50.63746625705496" lon="3.1220901335174545"><ele>32.33333333333333</ele><time>2026-04-19T15:11:03.001Z</time></trkpt><trkpt lat="50.63755558583469" lon="3.1220962018352996"><ele>32.166666666666664</ele><time>2026-04-19T15:11:05.001Z</time></trkpt><trkpt lat="50.63763780924133" lon="3.122104895188975"><ele>32.0</ele><time>2026-04-19T15:11:07.001Z</time></trkpt><trkpt lat="50.63774053898827" lon="3.122105999528212"><ele>32.33333333333333</ele><time>2026-04-19T15:11:10.001Z</time></trkpt><trkpt lat="50.63781628249228" lon="3.122110058101518"><ele>32.666666666666664</ele><time>2026-04-19T15:11:12.001Z</time></trkpt><trkpt lat="50.63789497083537" lon="3.122126931042134"><ele>33.0</ele><time>2026-04-19T15:11:14.001Z</time></trkpt><trkpt lat="50.63796746835189" lon="3.122132745084474"><ele>33.333333333333336</ele><time>2026-04-19T15:11:16.001Z</time></trkpt><trkpt lat="50.63805011904992" lon="3.122147431372788"><ele>33.66666666666667</ele><time>2026-04-19T15:11:18.001Z</time></trkpt><trkpt lat="50.63812499263845" lon="3.1221584659696107"><ele>34.0</ele><time>2026-04-19T15:11:20.001Z</time></trkpt><trkpt lat="50.63819738179106" lon="3.122169681222734"><ele>33.99999999999999</ele><time>2026-04-19T15:11:22.001Z</time></trkpt><trkpt lat="50.63827338352024" lon="3.1221812881569857"><ele>34.0</ele><time>2026-04-19T15:11:24.001Z</time></trkpt><trkpt lat="50.63834007517804" lon="3.122207597657996"><ele>34.0</ele><time>2026-04-19T15:11:26.001Z</time></trkpt><trkpt lat="50.63841592874085" lon="3.1222175301236814"><ele>34.0</ele><time>2026-04-19T15:11:28.001Z</time></trkpt><trkpt lat="50.638482015403824" lon="3.1222382570272353"><ele>34.0</ele><time>2026-04-19T15:11:30.001Z</time></trkpt><trkpt lat="50.63855075846955" lon="3.122255103811907"><ele>33.99999999999999</ele><time>2026-04-19T15:11:32.001Z</time></trkpt><trkpt lat="50.63862641102261" lon="3.122270743236122"><ele>34.0</ele><time>2026-04-19T15:11:34.001Z</time></trkpt><trkpt lat="50.638693722785696" lon="3.1223016307981375"><ele>33.833333333333336</ele><time>2026-04-19T15:11:36.001Z</time></trkpt><trkpt lat="50.638774566703326" lon="3.122305585863495"><ele>33.66666666666667</ele><time>2026-04-19T15:11:38.001Z</time></trkpt><trkpt lat="50.63885123437305" lon="3.122352333726682"><ele>33.5</ele><time>2026-04-19T15:11:40.001Z</time></trkpt><trkpt lat="50.63892147466752" lon="3.1223670065327847"><ele>33.333333333333336</ele><time>2026-04-19T15:11:42.001Z</time></trkpt><trkpt lat="50.63898466690657" lon="3.122393085414443"><ele>33.166666666666664</ele><time>2026-04-19T15:11:44.001Z</time></trkpt><trkpt lat="50.63905813604742" lon="3.122423785205416"><ele>33.0</ele><time>2026-04-19T15:11:46.001Z</time></trkpt><trkpt lat="50.63913805966574" lon="3.122442920741571"><ele>33.0</ele><time>2026-04-19T15:11:48.001Z</time></trkpt><trkpt lat="50.63920122891581" lon="3.1224595248626965"><ele>33.0</ele><time>2026-04-19T15:11:50.001Z</time></trkpt><trkpt lat="50.63926351854644" lon="3.1224771862293927"><ele>33.0</ele><time>2026-04-19T15:11:52Z</time></trkpt><trkpt lat="50.63935930302497" lon="3.122511444180454"><ele>33.0</ele><time>2026-04-19T15:11:55Z</time></trkpt><trkpt lat="50.63945374999635" lon="3.122541328980743"><ele>33.0</ele><time>2026-04-19T15:11:58Z</time></trkpt><trkpt lat="50.639519773333305" lon="3.1225673318878897"><ele>33.0</ele><time>2026-04-19T15:12:00Z</time></trkpt><trkpt lat="50.63958577441551" lon="3.122577403093724"><ele>33.666666666666664</ele><time>2026-04-19T15:12:02Z</time></trkpt><trkpt lat="50.63964985329805" lon="3.1225948177161267"><ele>34.333333333333336</ele><time>2026-04-19T15:12:04Z</time></trkpt><trkpt lat="50.6397307610075" lon="3.1226222500882477"><ele>35.0</ele><time>2026-04-19T15:12:07Z</time></trkpt><trkpt lat="50.63981857599438" lon="3.122647458679221"><ele>35.66666666666667</ele><time>2026-04-19T15:12:10Z</time></trkpt><trkpt lat="50.639889737706305" lon="3.122659577955342"><ele>36.333333333333336</ele><time>2026-04-19T15:12:12Z</time></trkpt><trkpt lat="50.639982596925734" lon="3.1226999325449873"><ele>37.0</ele><time>2026-04-19T15:12:15Z</time></trkpt><trkpt lat="50.64005215745572" lon="3.1227329704857127"><ele>37.0</ele><time>2026-04-19T15:12:17Z</time></trkpt><trkpt lat="50.640124424566146" lon="3.1227644457080204"><ele>37.0</ele><time>2026-04-19T15:12:19Z</time></trkpt><trkpt lat="50.64020113402835" lon="3.1227753587183416"><ele>37.0</ele><time>2026-04-19T15:12:21Z</time></trkpt><trkpt lat="50.64029635473091" lon="3.122783777668538"><ele>37.0</ele><time>2026-04-19T15:12:23Z</time></trkpt><trkpt lat="50.640390409592314" lon="3.1228340384457787"><ele>37.0</ele><time>2026-04-19T15:12:26Z</time></trkpt><trkpt lat="50.64047094426434" lon="3.1228640381823047"><ele>37.0</ele><time>2026-04-19T15:12:28Z</time></trkpt><trkpt lat="50.64055432671007" lon="3.1228673149101924"><ele>38.16666666666667</ele><time>2026-04-19T15:12:30Z</time></trkpt><trkpt lat="50.64063801286765" lon="3.1228953735583653"><ele>39.333333333333336</ele><time>2026-04-19T15:12:32Z</time></trkpt><trkpt lat="50.64072336356486" lon="3.1229198585788387"><ele>40.5</ele><time>2026-04-19T15:12:34Z</time></trkpt><trkpt lat="50.640811493598925" lon="3.122940514269209"><ele>41.666666666666664</ele><time>2026-04-19T15:12:36Z</time></trkpt><trkpt lat="50.64089607748946" lon="3.122973233304834"><ele>42.83333333333333</ele><time>2026-04-19T15:12:38Z</time></trkpt><trkpt lat="50.640988837919046" lon="3.122987658080023"><ele>44.0</ele><time>2026-04-19T15:12:40Z</time></trkpt><trkpt lat="50.64108471292261" lon="3.1230037658532144"><ele>44.0</ele><time>2026-04-19T15:12:42Z</time></trkpt><trkpt lat="50.64117187523607" lon="3.123016158747731"><ele>44.0</ele><time>2026-04-19T15:12:44Z</time></trkpt><trkpt lat="50.64125807093735" lon="3.1230290597933723"><ele>44.0</ele><time>2026-04-19T15:12:46Z</time></trkpt><trkpt lat="50.64133775694126" lon="3.123040784249254"><ele>44.0</ele><time>2026-04-19T15:12:48Z</time></trkpt><trkpt lat="50.64141524822085" lon="3.123029025926906"><ele>44.0</ele><time>2026-04-19T15:12:50Z</time></trkpt><trkpt lat="50.641494768535864" lon="3.1230416969909216"><ele>44.0</ele><time>2026-04-19T15:12:52Z</time></trkpt><trkpt lat="50.641573023455194" lon="3.123039618224"><ele>44.0</ele><time>2026-04-19T15:12:54Z</time></trkpt><trkpt lat="50.641651292732746" lon="3.1230269076589976"><ele>44.0</ele><time>2026-04-19T15:12:56Z</time></trkpt><trkpt lat="50.641738578243135" lon="3.123036121885644"><ele>44.0</ele><time>2026-04-19T15:12:58Z</time></trkpt><trkpt lat="50.64181925747266" lon="3.1230408390937496"><ele>44.0</ele><time>2026-04-19T15:13:00Z</time></trkpt><trkpt lat="50.64190153366103" lon="3.123054160227085"><ele>44.0</ele><time>2026-04-19T15:13:02Z</time></trkpt><trkpt lat="50.6419831731807" lon="3.12305843162169"><ele>44.0</ele><time>2026-04-19T15:13:04Z</time></trkpt><trkpt lat="50.64205830299052" lon="3.1230517648149014"><ele>44.0</ele><time>2026-04-19T15:13:06.001Z</time></trkpt><trkpt lat="50.64212572856093" lon="3.123044276330133"><ele>44.0</ele><time>2026-04-19T15:13:08.001Z</time></trkpt><trkpt lat="50.64219950204205" lon="3.1230313884430823"><ele>44.0</ele><time>2026-04-19T15:13:10.001Z</time></trkpt><trkpt lat="50.64226714513175" lon="3.1230386848021707"><ele>44.0</ele><time>2026-04-19T15:13:12.001Z</time></trkpt><trkpt lat="50.64233433612021" lon="3.123048375154655"><ele>44.0</ele><time>2026-04-19T15:13:14.001Z</time></trkpt><trkpt lat="50.64241802511244" lon="3.123039922003073"><ele>44.0</ele><time>2026-04-19T15:13:17.001Z</time></trkpt><trkpt lat="50.64248747255551" lon="3.1230290489256007"><ele>44.0</ele><time>2026-04-19T15:13:20.001Z</time></trkpt><trkpt lat="50.6425599932541" lon="3.123058554308653"><ele>44.0</ele><time>2026-04-19T15:13:23.001Z</time></trkpt><trkpt lat="50.64265043673055" lon="3.123048445729531"><ele>44.0</ele><time>2026-04-19T15:13:26.001Z</time></trkpt><trkpt lat="50.64272935251507" lon="3.123043742137212"><ele>44.0</ele><time>2026-04-19T15:13:30.001Z</time></trkpt><trkpt lat="50.64279610598709" lon="3.123049322666539"><ele>44.0</ele><time>2026-04-19T15:13:35Z</time></trkpt><trkpt lat="50.64286166485168" lon="3.123050082432695"><ele>44.0</ele><time>2026-04-19T15:13:44Z</time></trkpt><trkpt lat="50.64292894737748" lon="3.123064883439054"><ele>44.0</ele><time>2026-04-19T15:14:03Z</time></trkpt><trkpt lat="50.64300822922227" lon="3.1231034666530206"><ele>44.2</ele><time>2026-04-19T15:14:19Z</time></trkpt><trkpt lat="50.64308658909395" lon="3.123097606987552"><ele>44.400000000000006</ele><time>2026-04-19T15:14:21Z</time></trkpt><trkpt lat="50.643169716533684" lon="3.123090320371452"><ele>44.6</ele><time>2026-04-19T15:14:23Z</time></trkpt><trkpt lat="50.6433069766681" lon="3.1231059993082613"><ele>44.8</ele><time>2026-04-19T15:14:26Z</time></trkpt><trkpt lat="50.643400039645556" lon="3.1231223779416433"><ele>45.0</ele><time>2026-04-19T15:14:28Z</time></trkpt><trkpt lat="50.643490619817" lon="3.123147624959398"><ele>45.0</ele><time>2026-04-19T15:14:30Z</time></trkpt><trkpt lat="50.64358892043144" lon="3.1231822596160974"><ele>45.0</ele><time>2026-04-19T15:14:32Z</time></trkpt><trkpt lat="50.643679026816244" lon="3.1231965307708105"><ele>45.0</ele><time>2026-04-19T15:14:34Z</time></trkpt><trkpt lat="50.64375713226016" lon="3.1232364397737133"><ele>45.0</ele><time>2026-04-19T15:14:36Z</time></trkpt><trkpt lat="50.64383223516846" lon="3.123262279220805"><ele>45.0</ele><time>2026-04-19T15:14:38Z</time></trkpt><trkpt lat="50.64391584846003" lon="3.123296291043104"><ele>45.0</ele><time>2026-04-19T15:14:40Z</time></trkpt><trkpt lat="50.64400276360149" lon="3.1233331026189575"><ele>45.0</ele><time>2026-04-19T15:14:42Z</time></trkpt><trkpt lat="50.64408770656468" lon="3.1233603205319187"><ele>45.0</ele><time>2026-04-19T15:14:44Z</time></trkpt><trkpt lat="50.64417669488199" lon="3.123396220762391"><ele>45.0</ele><time>2026-04-19T15:14:46Z</time></trkpt><trkpt lat="50.64427038247489" lon="3.123440437995289"><ele>45.0</ele><time>2026-04-19T15:14:48Z</time></trkpt><trkpt lat="50.644365230851065" lon="3.123490147743012"><ele>45.0</ele><time>2026-04-19T15:14:50Z</time></trkpt><trkpt lat="50.64445523624351" lon="3.123534316547793"><ele>44.6</ele><time>2026-04-19T15:14:52Z</time></trkpt><trkpt lat="50.64454512182575" lon="3.1235749734184517"><ele>44.2</ele><time>2026-04-19T15:14:54Z</time></trkpt><trkpt lat="50.64463837603597" lon="3.1236255664308934"><ele>43.8</ele><time>2026-04-19T15:14:56Z</time></trkpt><trkpt lat="50.64473195809923" lon="3.123685195534373"><ele>43.4</ele><time>2026-04-19T15:14:58Z</time></trkpt><trkpt lat="50.64482690145353" lon="3.1237516487927026"><ele>43.0</ele><time>2026-04-19T15:15:00Z</time></trkpt><trkpt lat="50.644932409804554" lon="3.123818998650506"><ele>43.0</ele><time>2026-04-19T15:15:02Z</time></trkpt><trkpt lat="50.64503592191074" lon="3.1238986489413634"><ele>43.0</ele><time>2026-04-19T15:15:04Z</time></trkpt><trkpt lat="50.64515007075971" lon="3.1239810048022023"><ele>43.0</ele><time>2026-04-19T15:15:06Z</time></trkpt><trkpt lat="50.64520862637617" lon="3.124025054055806"><ele>43.0</ele><time>2026-04-19T15:15:07Z</time></trkpt><trkpt lat="50.64531533974522" lon="3.1241171852056095"><ele>43.0</ele><time>2026-04-19T15:15:09Z</time></trkpt><trkpt lat="50.64543324882033" lon="3.1242150575864156"><ele>42.66666666666667</ele><time>2026-04-19T15:15:11Z</time></trkpt><trkpt lat="50.64554183425525" lon="3.124300907618533"><ele>42.333333333333336</ele><time>2026-04-19T15:15:13Z</time></trkpt><trkpt lat="50.64560224194447" lon="3.1243531750832116"><ele>42.0</ele><time>2026-04-19T15:15:14Z</time></trkpt><trkpt lat="50.645663450255746" lon="3.124404406689778"><ele>41.666666666666664</ele><time>2026-04-19T15:15:15Z</time></trkpt><trkpt lat="50.6457240344042" lon="3.124453983491776"><ele>41.33333333333333</ele><time>2026-04-19T15:15:16Z</time></trkpt><trkpt lat="50.645783396109906" lon="3.1245054978985234"><ele>41.0</ele><time>2026-04-19T15:15:17Z</time></trkpt><trkpt lat="50.645846996750755" lon="3.124532142107501"><ele>40.99999999999999</ele><time>2026-04-19T15:15:18Z</time></trkpt><trkpt lat="50.645906322377215" lon="3.1245914717968386"><ele>41.0</ele><time>2026-04-19T15:15:19Z</time></trkpt><trkpt lat="50.6459669951733" lon="3.124639674582462"><ele>41.0</ele><time>2026-04-19T15:15:20Z</time></trkpt><trkpt lat="50.64602556041529" lon="3.1246765716768703"><ele>41.0</ele><time>2026-04-19T15:15:21Z</time></trkpt><trkpt lat="50.646091103915396" lon="3.1247178966111435"><ele>41.0</ele><time>2026-04-19T15:15:22Z</time></trkpt><trkpt lat="50.64615232111874" lon="3.124778664354413"><ele>40.99999999999999</ele><time>2026-04-19T15:15:23Z</time></trkpt><trkpt lat="50.64621854005241" lon="3.1248382460034416"><ele>41.0</ele><time>2026-04-19T15:15:24Z</time></trkpt><trkpt lat="50.646282921932425" lon="3.1248881604856686"><ele>40.71428571428571</ele><time>2026-04-19T15:15:25Z</time></trkpt><trkpt lat="50.64634763648974" lon="3.124941028286023"><ele>40.42857142857143</ele><time>2026-04-19T15:15:26Z</time></trkpt><trkpt lat="50.64641438304689" lon="3.1249897257819477"><ele>40.14285714285714</ele><time>2026-04-19T15:15:27Z</time></trkpt><trkpt lat="50.64648574367832" lon="3.125031579718838"><ele>39.857142857142854</ele><time>2026-04-19T15:15:28Z</time></trkpt><trkpt lat="50.64655679758588" lon="3.1250700703490986"><ele>39.57142857142857</ele><time>2026-04-19T15:15:29Z</time></trkpt><trkpt lat="50.64662132615816" lon="3.1251130429516514"><ele>39.285714285714285</ele><time>2026-04-19T15:15:30Z</time></trkpt><trkpt lat="50.64668680122159" lon="3.1251501688718037"><ele>39.0</ele><time>2026-04-19T15:15:31Z</time></trkpt><trkpt lat="50.64675252430116" lon="3.1251866645492363"><ele>39.0</ele><time>2026-04-19T15:15:32Z</time></trkpt><trkpt lat="50.646820028943814" lon="3.1252204607860494"><ele>39.0</ele><time>2026-04-19T15:15:33Z</time></trkpt><trkpt lat="50.64688801690346" lon="3.125251043041705"><ele>39.0</ele><time>2026-04-19T15:15:34Z</time></trkpt><trkpt lat="50.64695575957024" lon="3.1252827223610504"><ele>39.0</ele><time>2026-04-19T15:15:35Z</time></trkpt><trkpt lat="50.64702282636298" lon="3.1253101008885174"><ele>39.0</ele><time>2026-04-19T15:15:36Z</time></trkpt><trkpt lat="50.64708574585691" lon="3.1253362248122425"><ele>39.0</ele><time>2026-04-19T15:15:37Z</time></trkpt><trkpt lat="50.64714835104737" lon="3.125360659160445"><ele>39.0</ele><time>2026-04-19T15:15:38Z</time></trkpt><trkpt lat="50.64720936972539" lon="3.1253979140650148"><ele>38.85714285714286</ele><time>2026-04-19T15:15:39Z</time></trkpt><trkpt lat="50.64726970287544" lon="3.125434019701912"><ele>38.71428571428571</ele><time>2026-04-19T15:15:40Z</time></trkpt><trkpt lat="50.647331773720985" lon="3.1254708186553155"><ele>38.57142857142857</ele><time>2026-04-19T15:15:41Z</time></trkpt><trkpt lat="50.64739504296006" lon="3.1255053766982486"><ele>38.42857142857143</ele><time>2026-04-19T15:15:42Z</time></trkpt><trkpt lat="50.647458628915004" lon="3.125541032544534"><ele>38.28571428571429</ele><time>2026-04-19T15:15:43Z</time></trkpt><trkpt lat="50.64752216592434" lon="3.125572180482698"><ele>38.14285714285714</ele><time>2026-04-19T15:15:44Z</time></trkpt><trkpt lat="50.64758622410276" lon="3.1256100939284064"><ele>38.0</ele><time>2026-04-19T15:15:45Z</time></trkpt><trkpt lat="50.64765721192209" lon="3.1256451094504922"><ele>38.0</ele><time>2026-04-19T15:15:46Z</time></trkpt><trkpt lat="50.64773274212191" lon="3.1256840161228925"><ele>38.0</ele><time>2026-04-19T15:15:47Z</time></trkpt><trkpt lat="50.647800489723075" lon="3.1257141882477364"><ele>38.0</ele><time>2026-04-19T15:15:48Z</time></trkpt><trkpt lat="50.64786708387282" lon="3.1257534292293117"><ele>38.0</ele><time>2026-04-19T15:15:49Z</time></trkpt><trkpt lat="50.647933608614856" lon="3.125787800504543"><ele>38.0</ele><time>2026-04-19T15:15:50Z</time></trkpt><trkpt lat="50.648003953618634" lon="3.1258229327559826"><ele>38.0</ele><time>2026-04-19T15:15:51Z</time></trkpt><trkpt lat="50.64813903730753" lon="3.125900046460207"><ele>37.33333333333333</ele><time>2026-04-19T15:15:53Z</time></trkpt><trkpt lat="50.648217210236595" lon="3.1259457061534137"><ele>36.666666666666664</ele><time>2026-04-19T15:15:54Z</time></trkpt><trkpt lat="50.648290994113985" lon="3.1259778579067534"><ele>36.0</ele><time>2026-04-19T15:15:55Z</time></trkpt><trkpt lat="50.64837401212595" lon="3.1260247038299496"><ele>35.333333333333336</ele><time>2026-04-19T15:15:56Z</time></trkpt><trkpt lat="50.648450139992825" lon="3.1260711763376836"><ele>34.66666666666667</ele><time>2026-04-19T15:15:57Z</time></trkpt><trkpt lat="50.6485293372886" lon="3.126109834020805"><ele>34.0</ele><time>2026-04-19T15:15:58Z</time></trkpt><trkpt lat="50.64860394928827" lon="3.126126685299141"><ele>34.5</ele><time>2026-04-19T15:15:59Z</time></trkpt><trkpt lat="50.64867811185794" lon="3.1261483553097116"><ele>35.0</ele><time>2026-04-19T15:16:00Z</time></trkpt><trkpt lat="50.648747484528336" lon="3.126188930946125"><ele>35.5</ele><time>2026-04-19T15:16:01Z</time></trkpt><trkpt lat="50.64882733022673" lon="3.1262383088852475"><ele>36.0</ele><time>2026-04-19T15:16:02Z</time></trkpt><trkpt lat="50.648897277113534" lon="3.126285593598053"><ele>36.5</ele><time>2026-04-19T15:16:03Z</time></trkpt><trkpt lat="50.64896826979946" lon="3.1263299150085024"><ele>37.0</ele><time>2026-04-19T15:16:04Z</time></trkpt><trkpt lat="50.64903540775093" lon="3.126361120558176"><ele>37.0</ele><time>2026-04-19T15:16:05Z</time></trkpt><trkpt lat="50.64911043288483" lon="3.1264019997566597"><ele>37.0</ele><time>2026-04-19T15:16:06Z</time></trkpt><trkpt lat="50.64918912743701" lon="3.126430328806931"><ele>37.0</ele><time>2026-04-19T15:16:07Z</time></trkpt><trkpt lat="50.64932269991976" lon="3.126510466397312"><ele>37.0</ele><time>2026-04-19T15:16:09Z</time></trkpt><trkpt lat="50.649394864257" lon="3.126547366462913"><ele>37.0</ele><time>2026-04-19T15:16:10Z</time></trkpt><trkpt lat="50.64947575937091" lon="3.126586383076206"><ele>37.0</ele><time>2026-04-19T15:16:11Z</time></trkpt><trkpt lat="50.64954883152837" lon="3.126628981419349"><ele>37.0</ele><time>2026-04-19T15:16:12Z</time></trkpt><trkpt lat="50.64962013469242" lon="3.126668172024964"><ele>37.0</ele><time>2026-04-19T15:16:13Z</time></trkpt><trkpt lat="50.649692719907605" lon="3.1267060576280477"><ele>37.0</ele><time>2026-04-19T15:16:14Z</time></trkpt><trkpt lat="50.649767030310564" lon="3.12673506837348"><ele>37.0</ele><time>2026-04-19T15:16:15Z</time></trkpt><trkpt lat="50.64983178647774" lon="3.126768035031454"><ele>37.0</ele><time>2026-04-19T15:16:16Z</time></trkpt><trkpt lat="50.64989045331616" lon="3.1268060349356195"><ele>37.0</ele><time>2026-04-19T15:16:17Z</time></trkpt><trkpt lat="50.64996729156155" lon="3.12683061080791"><ele>37.0</ele><time>2026-04-19T15:16:18Z</time></trkpt><trkpt lat="50.650080464288045" lon="3.1269029589481843"><ele>37.0</ele><time>2026-04-19T15:16:20Z</time></trkpt><trkpt lat="50.65014429612396" lon="3.126936586213073"><ele>37.0</ele><time>2026-04-19T15:16:21Z</time></trkpt><trkpt lat="50.650206670133436" lon="3.1269657109548348"><ele>37.0</ele><time>2026-04-19T15:16:22Z</time></trkpt><trkpt lat="50.650323205153875" lon="3.127018366987846"><ele>37.0</ele><time>2026-04-19T15:16:24Z</time></trkpt><trkpt lat="50.65037784424583" lon="3.127069774828612"><ele>37.0</ele><time>2026-04-19T15:16:25Z</time></trkpt><trkpt lat="50.65047896964191" lon="3.1271643729865346"><ele>37.0</ele><time>2026-04-19T15:16:27Z</time></trkpt><trkpt lat="50.650543790809266" lon="3.1272882269049402"><ele>37.0</ele><time>2026-04-19T15:16:29Z</time></trkpt><trkpt lat="50.65053878451711" lon="3.127391878029425"><ele>37.0</ele><time>2026-04-19T15:16:30Z</time></trkpt><trkpt lat="50.650565174609206" lon="3.127535679423207"><ele>37.0</ele><time>2026-04-19T15:16:32Z</time></trkpt><trkpt lat="50.65059230243712" lon="3.127675281141386"><ele>37.0</ele><time>2026-04-19T15:16:34Z</time></trkpt><trkpt lat="50.650629659101355" lon="3.127787572538785"><ele>37.0</ele><time>2026-04-19T15:16:36Z</time></trkpt><trkpt lat="50.65068062663594" lon="3.127878253050155"><ele>37.0</ele><time>2026-04-19T15:16:38Z</time></trkpt><trkpt lat="50.65073074054774" lon="3.127938711166341"><ele>37.0</ele><time>2026-04-19T15:16:53Z</time></trkpt><trkpt lat="50.6507938140752" lon="3.1280243928859925"><ele>37.0</ele><time>2026-04-19T15:16:57Z</time></trkpt><trkpt lat="50.650851650390926" lon="3.128089533169684"><ele>37.0</ele><time>2026-04-19T15:16:59Z</time></trkpt><trkpt lat="50.6509163382569" lon="3.1281542490607266"><ele>37.0</ele><time>2026-04-19T15:17:01Z</time></trkpt><trkpt lat="50.65098072645223" lon="3.1282031148047578"><ele>37.0</ele><time>2026-04-19T15:17:03Z</time></trkpt><trkpt lat="50.651068683847946" lon="3.1282649978880195"><ele>37.5</ele><time>2026-04-19T15:17:05Z</time></trkpt><trkpt lat="50.65114944171988" lon="3.128309316463666"><ele>38.0</ele><time>2026-04-19T15:17:07Z</time></trkpt><trkpt lat="50.65122149984143" lon="3.1283991600745344"><ele>38.5</ele><time>2026-04-19T15:17:09Z</time></trkpt><trkpt lat="50.65129837350513" lon="3.1284108678588796"><ele>39.0</ele><time>2026-04-19T15:17:11Z</time></trkpt><trkpt lat="50.651364752868666" lon="3.1284151492504693"><ele>39.5</ele><time>2026-04-19T15:17:12Z</time></trkpt><trkpt lat="50.65144934902507" lon="3.1283870384666526"><ele>40.0</ele><time>2026-04-19T15:17:14Z</time></trkpt><trkpt lat="50.65152941648645" lon="3.1283772521840674"><ele>40.0</ele><time>2026-04-19T15:17:16Z</time></trkpt><trkpt lat="50.65162759656181" lon="3.128316838672108"><ele>40.0</ele><time>2026-04-19T15:17:18Z</time></trkpt><trkpt lat="50.65170535031966" lon="3.128275807738608"><ele>40.0</ele><time>2026-04-19T15:17:20Z</time></trkpt><trkpt lat="50.65177591514682" lon="3.128227215281686"><ele>40.0</ele><time>2026-04-19T15:17:22Z</time></trkpt><trkpt lat="50.65191568235891" lon="3.1282356795638173"><ele>40.0</ele><time>2026-04-19T15:17:25Z</time></trkpt><trkpt lat="50.651983702131346" lon="3.12828575723682"><ele>40.0</ele><time>2026-04-19T15:17:27Z</time></trkpt><trkpt lat="50.65206965584337" lon="3.1283434315371057"><ele>40.0</ele><time>2026-04-19T15:17:29Z</time></trkpt><trkpt lat="50.65215606105403" lon="3.1283965882940405"><ele>40.0</ele><time>2026-04-19T15:17:31Z</time></trkpt><trkpt lat="50.65224079436501" lon="3.128466864229815"><ele>40.0</ele><time>2026-04-19T15:17:33Z</time></trkpt><trkpt lat="50.65233076964504" lon="3.1285234503302264"><ele>40.0</ele><time>2026-04-19T15:17:35Z</time></trkpt><trkpt lat="50.65241826019318" lon="3.1285672809131553"><ele>40.0</ele><time>2026-04-19T15:17:37Z</time></trkpt><trkpt lat="50.65249935021585" lon="3.1286263307093636"><ele>40.0</ele><time>2026-04-19T15:17:39Z</time></trkpt><trkpt lat="50.652598252917734" lon="3.128666637959333"><ele>40.0</ele><time>2026-04-19T15:17:41Z</time></trkpt><trkpt lat="50.652686883858486" lon="3.128745635077926"><ele>40.0</ele><time>2026-04-19T15:17:43Z</time></trkpt><trkpt lat="50.65276338107046" lon="3.12883263639844"><ele>40.0</ele><time>2026-04-19T15:17:45Z</time></trkpt><trkpt lat="50.652844786142346" lon="3.128925743642816"><ele>39.6</ele><time>2026-04-19T15:17:47Z</time></trkpt><trkpt lat="50.65291524822039" lon="3.1290058803249328"><ele>39.2</ele><time>2026-04-19T15:17:49Z</time></trkpt><trkpt lat="50.6530029228738" lon="3.1290686914760824"><ele>38.8</ele><time>2026-04-19T15:17:51Z</time></trkpt><trkpt lat="50.65307223706219" lon="3.1291596974957043"><ele>38.4</ele><time>2026-04-19T15:17:53Z</time></trkpt><trkpt lat="50.653136178507935" lon="3.1292491467797214"><ele>38.0</ele><time>2026-04-19T15:17:55Z</time></trkpt><trkpt lat="50.65321461148496" lon="3.1293232301901326"><ele>38.0</ele><time>2026-04-19T15:17:57Z</time></trkpt><trkpt lat="50.653276910158354" lon="3.1294322635798726"><ele>38.0</ele><time>2026-04-19T15:17:59Z</time></trkpt><trkpt lat="50.65335039672889" lon="3.129529747768675"><ele>38.0</ele><time>2026-04-19T15:18:01Z</time></trkpt><trkpt lat="50.653418935209416" lon="3.129641668234705"><ele>38.0</ele><time>2026-04-19T15:18:03Z</time></trkpt><trkpt lat="50.65347608127225" lon="3.129691364996011"><ele>38.0</ele><time>2026-04-19T15:18:53Z</time></trkpt><trkpt lat="50.653532491540176" lon="3.129789219749893"><ele>38.0</ele><time>2026-04-19T15:18:57Z</time></trkpt><trkpt lat="50.653586403223485" lon="3.1298562875055915"><ele>37.4</ele><time>2026-04-19T15:18:59Z</time></trkpt><trkpt lat="50.653645961040056" lon="3.1299412247470393"><ele>36.8</ele><time>2026-04-19T15:19:01Z</time></trkpt><trkpt lat="50.65371360044168" lon="3.130053330224005"><ele>36.2</ele><time>2026-04-19T15:19:03Z</time></trkpt><trkpt lat="50.65377988262168" lon="3.1301702383376786"><ele>35.6</ele><time>2026-04-19T15:19:05Z</time></trkpt><trkpt lat="50.653849457627175" lon="3.130281350291193"><ele>35.0</ele><time>2026-04-19T15:19:07Z</time></trkpt><trkpt lat="50.65392529308903" lon="3.130404546095439"><ele>35.0</ele><time>2026-04-19T15:19:09Z</time></trkpt><trkpt lat="50.65400024691203" lon="3.13051599315441"><ele>35.0</ele><time>2026-04-19T15:19:11Z</time></trkpt><trkpt lat="50.6540425948645" lon="3.1306020736268265"><ele>35.0</ele><time>2026-04-19T15:19:12Z</time></trkpt><trkpt lat="50.654111603458105" lon="3.1307118495291646"><ele>35.0</ele><time>2026-04-19T15:19:14Z</time></trkpt><trkpt lat="50.65419411530055" lon="3.130835391278397"><ele>35.0</ele><time>2026-04-19T15:19:16Z</time></trkpt><trkpt lat="50.65428516873836" lon="3.1309673358889114"><ele>34.666666666666664</ele><time>2026-04-19T15:19:18Z</time></trkpt><trkpt lat="50.65436864742595" lon="3.131108837736808"><ele>34.33333333333333</ele><time>2026-04-19T15:19:20Z</time></trkpt><trkpt lat="50.65441064112807" lon="3.1311849351895154"><ele>34.0</ele><time>2026-04-19T15:19:21Z</time></trkpt><trkpt lat="50.6544594994386" lon="3.131262650685268"><ele>33.666666666666664</ele><time>2026-04-19T15:19:22Z</time></trkpt><trkpt lat="50.654508419314176" lon="3.131334191099225"><ele>33.333333333333336</ele><time>2026-04-19T15:19:23Z</time></trkpt><trkpt lat="50.654557129618276" lon="3.1314083510610184"><ele>33.0</ele><time>2026-04-19T15:19:24Z</time></trkpt><trkpt lat="50.65460988852842" lon="3.1314893306098552"><ele>33.0</ele><time>2026-04-19T15:19:25Z</time></trkpt><trkpt lat="50.65466746156011" lon="3.1315509849239485"><ele>33.0</ele><time>2026-04-19T15:19:26Z</time></trkpt><trkpt lat="50.65471571183654" lon="3.131660048940913"><ele>33.0</ele><time>2026-04-19T15:19:27Z</time></trkpt><trkpt lat="50.654790141294754" lon="3.1317620538384157"><ele>33.0</ele><time>2026-04-19T15:19:28Z</time></trkpt><trkpt lat="50.654833454055066" lon="3.1318341853902814"><ele>33.0</ele><time>2026-04-19T15:19:29Z</time></trkpt><trkpt lat="50.654887597063905" lon="3.1319178465132067"><ele>33.0</ele><time>2026-04-19T15:19:30Z</time></trkpt><trkpt lat="50.65494984160938" lon="3.1320026329221125"><ele>33.0</ele><time>2026-04-19T15:19:31Z</time></trkpt><trkpt lat="50.65501193361661" lon="3.132091440739266"><ele>33.0</ele><time>2026-04-19T15:19:32Z</time></trkpt><trkpt lat="50.65507056587578" lon="3.1321796774077124"><ele>33.0</ele><time>2026-04-19T15:19:33Z</time></trkpt><trkpt lat="50.65513391528568" lon="3.132261184093828"><ele>33.0</ele><time>2026-04-19T15:19:34Z</time></trkpt><trkpt lat="50.65519559637268" lon="3.1323471984027735"><ele>33.0</ele><time>2026-04-19T15:19:35Z</time></trkpt><trkpt lat="50.65525155906296" lon="3.132459592876045"><ele>33.0</ele><time>2026-04-19T15:19:36Z</time></trkpt><trkpt lat="50.65530771501466" lon="3.132519648204748"><ele>33.0</ele><time>2026-04-19T15:19:37Z</time></trkpt><trkpt lat="50.65537608883329" lon="3.132584477392471"><ele>33.0</ele><time>2026-04-19T15:19:38Z</time></trkpt><trkpt lat="50.655446571738885" lon="3.1326521224268133"><ele>33.0</ele><time>2026-04-19T15:19:39Z</time></trkpt><trkpt lat="50.65550744417892" lon="3.132725384367875"><ele>33.0</ele><time>2026-04-19T15:19:40Z</time></trkpt><trkpt lat="50.655582915382965" lon="3.132768792381634"><ele>33.0</ele><time>2026-04-19T15:19:41Z</time></trkpt><trkpt lat="50.655650451783515" lon="3.132849590332208"><ele>33.0</ele><time>2026-04-19T15:19:42Z</time></trkpt><trkpt lat="50.65571332718237" lon="3.132927704115863"><ele>33.0</ele><time>2026-04-19T15:19:43Z</time></trkpt><trkpt lat="50.65578621764653" lon="3.132987477874122"><ele>33.0</ele><time>2026-04-19T15:19:44Z</time></trkpt><trkpt lat="50.65585248457267" lon="3.1330528965277864"><ele>33.0</ele><time>2026-04-19T15:19:45Z</time></trkpt><trkpt lat="50.65591866780608" lon="3.133113607060914"><ele>33.0</ele><time>2026-04-19T15:19:46Z</time></trkpt><trkpt lat="50.65599049909953" lon="3.1331637365964737"><ele>33.0</ele><time>2026-04-19T15:19:47Z</time></trkpt><trkpt lat="50.65606082455725" lon="3.1332529631290407"><ele>33.0</ele><time>2026-04-19T15:19:48Z</time></trkpt><trkpt lat="50.65613336311008" lon="3.1332835346393417"><ele>32.166666666666664</ele><time>2026-04-19T15:19:49Z</time></trkpt><trkpt lat="50.6562035448116" lon="3.1333470717236267"><ele>31.333333333333336</ele><time>2026-04-19T15:19:50Z</time></trkpt><trkpt lat="50.65626234633178" lon="3.1334068725445836"><ele>30.5</ele><time>2026-04-19T15:19:51Z</time></trkpt><trkpt lat="50.65632209951203" lon="3.1334388401750473"><ele>29.666666666666668</ele><time>2026-04-19T15:19:52Z</time></trkpt><trkpt lat="50.65644994042879" lon="3.1334856467477157"><ele>28.833333333333336</ele><time>2026-04-19T15:19:54Z</time></trkpt><trkpt lat="50.65651267232464" lon="3.133519504264513"><ele>28.0</ele><time>2026-04-19T15:19:55Z</time></trkpt><trkpt lat="50.65657673970218" lon="3.1335694628262476"><ele>28.000000000000004</ele><time>2026-04-19T15:19:56Z</time></trkpt><trkpt lat="50.65669763074625" lon="3.1335987972167687"><ele>28.0</ele><time>2026-04-19T15:19:58Z</time></trkpt><trkpt lat="50.65676214606282" lon="3.133623952645446"><ele>28.0</ele><time>2026-04-19T15:19:59Z</time></trkpt><trkpt lat="50.65682848820236" lon="3.1336533204809367"><ele>28.0</ele><time>2026-04-19T15:20:00Z</time></trkpt><trkpt lat="50.656901414690374" lon="3.133689315650924"><ele>28.000000000000004</ele><time>2026-04-19T15:20:01Z</time></trkpt><trkpt lat="50.656968793463456" lon="3.133716638984192"><ele>28.0</ele><time>2026-04-19T15:20:02Z</time></trkpt><trkpt lat="50.65702954848759" lon="3.133766345914966"><ele>28.166666666666668</ele><time>2026-04-19T15:20:03Z</time></trkpt><trkpt lat="50.657094789666445" lon="3.133802364726948"><ele>28.333333333333336</ele><time>2026-04-19T15:20:04Z</time></trkpt><trkpt lat="50.65721711787262" lon="3.1338658775740185"><ele>28.5</ele><time>2026-04-19T15:20:06Z</time></trkpt><trkpt lat="50.65728443385229" lon="3.1339034501765584"><ele>28.666666666666664</ele><time>2026-04-19T15:20:07Z</time></trkpt><trkpt lat="50.65734953244231" lon="3.1339422457470305"><ele>28.833333333333332</ele><time>2026-04-19T15:20:08Z</time></trkpt><trkpt lat="50.65741691726904" lon="3.1339765987690096"><ele>29.0</ele><time>2026-04-19T15:20:09Z</time></trkpt><trkpt lat="50.65748726553177" lon="3.134001931796941"><ele>29.000000000000004</ele><time>2026-04-19T15:20:10Z</time></trkpt><trkpt lat="50.6575519841634" lon="3.13403273428583"><ele>29.0</ele><time>2026-04-19T15:20:11Z</time></trkpt><trkpt lat="50.6576213324858" lon="3.1340654576984517"><ele>29.000000000000004</ele><time>2026-04-19T15:20:12Z</time></trkpt><trkpt lat="50.657684736249976" lon="3.1341045401011307"><ele>29.000000000000004</ele><time>2026-04-19T15:20:13Z</time></trkpt><trkpt lat="50.657752956668595" lon="3.1341323318604672"><ele>29.0</ele><time>2026-04-19T15:20:14Z</time></trkpt><trkpt lat="50.6578135386218" lon="3.134174865278228"><ele>29.000000000000004</ele><time>2026-04-19T15:20:15Z</time></trkpt><trkpt lat="50.65787815624955" lon="3.1342147690007365"><ele>29.000000000000004</ele><time>2026-04-19T15:20:16Z</time></trkpt><trkpt lat="50.65794699020165" lon="3.134246888878854"><ele>28.85714285714286</ele><time>2026-04-19T15:20:17Z</time></trkpt><trkpt lat="50.65800467900748" lon="3.1342882385002695"><ele>28.714285714285715</ele><time>2026-04-19T15:20:18Z</time></trkpt><trkpt lat="50.65807066451525" lon="3.1343322313322695"><ele>28.571428571428573</ele><time>2026-04-19T15:20:19Z</time></trkpt><trkpt lat="50.65813348951827" lon="3.1343834546497074"><ele>28.42857142857143</ele><time>2026-04-19T15:20:20Z</time></trkpt><trkpt lat="50.65820285289998" lon="3.1344320152539047"><ele>28.285714285714285</ele><time>2026-04-19T15:20:21Z</time></trkpt><trkpt lat="50.658265492227116" lon="3.1344723377991994"><ele>28.142857142857142</ele><time>2026-04-19T15:20:22Z</time></trkpt><trkpt lat="50.658336226401104" lon="3.1345137570118786"><ele>28.0</ele><time>2026-04-19T15:20:23Z</time></trkpt><trkpt lat="50.65839765122954" lon="3.1345589693002958"><ele>28.0</ele><time>2026-04-19T15:20:24Z</time></trkpt><trkpt lat="50.658469951887874" lon="3.134593710402587"><ele>28.0</ele><time>2026-04-19T15:20:25Z</time></trkpt><trkpt lat="50.658533207172034" lon="3.1346503407946082"><ele>28.0</ele><time>2026-04-19T15:20:26Z</time></trkpt><trkpt lat="50.65860159113166" lon="3.1346926939406847"><ele>28.0</ele><time>2026-04-19T15:20:27Z</time></trkpt><trkpt lat="50.658664534035125" lon="3.134735509991863"><ele>28.0</ele><time>2026-04-19T15:20:28Z</time></trkpt><trkpt lat="50.658725428319826" lon="3.1347806692559326"><ele>28.0</ele><time>2026-04-19T15:20:29Z</time></trkpt><trkpt lat="50.65878353600658" lon="3.1348281963091034"><ele>28.0</ele><time>2026-04-19T15:20:30Z</time></trkpt><trkpt lat="50.65884692885274" lon="3.1348780397784584"><ele>27.333333333333336</ele><time>2026-04-19T15:20:31Z</time></trkpt><trkpt lat="50.658906585041784" lon="3.1349279713617624"><ele>26.666666666666668</ele><time>2026-04-19T15:20:32Z</time></trkpt><trkpt lat="50.65899909362321" lon="3.135005537367145"><ele>26.0</ele><time>2026-04-19T15:20:34Z</time></trkpt><trkpt lat="50.659076742600774" lon="3.135078261388094"><ele>25.333333333333336</ele><time>2026-04-19T15:20:36Z</time></trkpt><trkpt lat="50.65913797778741" lon="3.135128606824681"><ele>24.666666666666668</ele><time>2026-04-19T15:20:38Z</time></trkpt><trkpt lat="50.659198372527925" lon="3.135164975278859"><ele>24.0</ele><time>2026-04-19T15:21:01.999Z</time></trkpt><trkpt lat="50.65927583570368" lon="3.1352384268727382"><ele>24.0</ele><time>2026-04-19T15:21:16.999Z</time></trkpt><trkpt lat="50.65933630990108" lon="3.135296483502655"><ele>24.0</ele><time>2026-04-19T15:21:18.999Z</time></trkpt><trkpt lat="50.65938202532526" lon="3.1354213915085354"><ele>24.0</ele><time>2026-04-19T15:21:20.999Z</time></trkpt><trkpt lat="50.65946137365561" lon="3.135490974317374"><ele>24.0</ele><time>2026-04-19T15:21:22.999Z</time></trkpt><trkpt lat="50.65953727954836" lon="3.1355722192486875"><ele>24.0</ele><time>2026-04-19T15:21:24.999Z</time></trkpt><trkpt lat="50.65961887545115" lon="3.135662224144569"><ele>24.0</ele><time>2026-04-19T15:21:26.999Z</time></trkpt><trkpt lat="50.65969886505989" lon="3.1357377955693817"><ele>24.2</ele><time>2026-04-19T15:21:29Z</time></trkpt><trkpt lat="50.65978866756099" lon="3.1358299618435135"><ele>24.4</ele><time>2026-04-19T15:21:31Z</time></trkpt><trkpt lat="50.65988117921214" lon="3.135929013830206"><ele>24.6</ele><time>2026-04-19T15:21:33Z</time></trkpt><trkpt lat="50.65997936222749" lon="3.136005726907682"><ele>24.8</ele><time>2026-04-19T15:21:35Z</time></trkpt><trkpt lat="50.66008043230704" lon="3.1360769516666624"><ele>25.0</ele><time>2026-04-19T15:21:37Z</time></trkpt><trkpt lat="50.6601681239274" lon="3.1361574999687623"><ele>25.0</ele><time>2026-04-19T15:21:39Z</time></trkpt><trkpt lat="50.660271474707805" lon="3.1362289718282055"><ele>25.0</ele><time>2026-04-19T15:21:41Z</time></trkpt><trkpt lat="50.66035278367309" lon="3.1362984898883015"><ele>25.0</ele><time>2026-04-19T15:21:43Z</time></trkpt><trkpt lat="50.660413148720224" lon="3.1363417817727526"><ele>25.0</ele><time>2026-04-19T15:21:44Z</time></trkpt><trkpt lat="50.660524366724275" lon="3.1364224449482236"><ele>25.0</ele><time>2026-04-19T15:21:46Z</time></trkpt><trkpt lat="50.660614993931176" lon="3.1365068993970766"><ele>24.8</ele><time>2026-04-19T15:21:48Z</time></trkpt><trkpt lat="50.66067050038294" lon="3.1365710955644763"><ele>24.6</ele><time>2026-04-19T15:21:49Z</time></trkpt><trkpt lat="50.660766480656356" lon="3.1366537571009308"><ele>24.4</ele><time>2026-04-19T15:21:51Z</time></trkpt><trkpt lat="50.66086300731239" lon="3.136746885407038"><ele>24.2</ele><time>2026-04-19T15:21:53Z</time></trkpt><trkpt lat="50.66096794678603" lon="3.1368401671677653"><ele>24.0</ele><time>2026-04-19T15:21:55Z</time></trkpt><trkpt lat="50.66107887258487" lon="3.136929375263406"><ele>24.333333333333332</ele><time>2026-04-19T15:21:57Z</time></trkpt><trkpt lat="50.66113755418036" lon="3.1369742871067388"><ele>24.666666666666664</ele><time>2026-04-19T15:21:58Z</time></trkpt><trkpt lat="50.66123545368877" lon="3.1370731517849872"><ele>25.0</ele><time>2026-04-19T15:22:00Z</time></trkpt><trkpt lat="50.6612925390361" lon="3.137117869699931"><ele>25.333333333333332</ele><time>2026-04-19T15:22:01Z</time></trkpt><trkpt lat="50.66139071170254" lon="3.137206642581342"><ele>25.666666666666664</ele><time>2026-04-19T15:22:03Z</time></trkpt><trkpt lat="50.66144432075257" lon="3.1372644357023765"><ele>26.0</ele><time>2026-04-19T15:22:04Z</time></trkpt><trkpt lat="50.661534486455615" lon="3.137349724463477"><ele>25.833333333333332</ele><time>2026-04-19T15:22:06Z</time></trkpt><trkpt lat="50.661597544927126" lon="3.1373990428710306"><ele>25.666666666666664</ele><time>2026-04-19T15:22:07Z</time></trkpt><trkpt lat="50.66168147396684" lon="3.1374965187687693"><ele>25.5</ele><time>2026-04-19T15:22:09Z</time></trkpt><trkpt lat="50.661748457016394" lon="3.137537803273882"><ele>25.333333333333336</ele><time>2026-04-19T15:22:10Z</time></trkpt><trkpt lat="50.66180916104533" lon="3.137572552981023"><ele>25.166666666666668</ele><time>2026-04-19T15:22:11Z</time></trkpt><trkpt lat="50.661861527559736" lon="3.1376326114899245"><ele>25.0</ele><time>2026-04-19T15:22:12Z</time></trkpt><trkpt lat="50.66193747094081" lon="3.137724664216255"><ele>24.25</ele><time>2026-04-19T15:22:14Z</time></trkpt><trkpt lat="50.662048156441514" lon="3.1378036062076924"><ele>23.5</ele><time>2026-04-19T15:22:16Z</time></trkpt><trkpt lat="50.66214171574659" lon="3.1378964258167943"><ele>22.75</ele><time>2026-04-19T15:22:18Z</time></trkpt><trkpt lat="50.66224265087998" lon="3.137995302589118"><ele>22.0</ele><time>2026-04-19T15:22:20Z</time></trkpt><trkpt lat="50.662339938182164" lon="3.138089653218407"><ele>22.0</ele><time>2026-04-19T15:22:22Z</time></trkpt><trkpt lat="50.66243363789353" lon="3.138187692112347"><ele>22.0</ele><time>2026-04-19T15:22:24Z</time></trkpt><trkpt lat="50.662518395632716" lon="3.138262404578324"><ele>22.0</ele><time>2026-04-19T15:22:26Z</time></trkpt><trkpt lat="50.662606268392295" lon="3.1383643987239562"><ele>22.0</ele><time>2026-04-19T15:22:28Z</time></trkpt><trkpt lat="50.66270023660347" lon="3.138459793335353"><ele>22.0</ele><time>2026-04-19T15:22:30Z</time></trkpt><trkpt lat="50.66279196664235" lon="3.138553239973305"><ele>22.200000000000003</ele><time>2026-04-19T15:22:32Z</time></trkpt><trkpt lat="50.662886159498164" lon="3.1386409392088983"><ele>22.4</ele><time>2026-04-19T15:22:34Z</time></trkpt><trkpt lat="50.6629658072935" lon="3.1387189219935223"><ele>22.6</ele><time>2026-04-19T15:22:36Z</time></trkpt><trkpt lat="50.66302810297466" lon="3.1387755129303163"><ele>22.799999999999997</ele><time>2026-04-19T15:22:38Z</time></trkpt><trkpt lat="50.66311507427987" lon="3.1388734079857543"><ele>23.0</ele><time>2026-04-19T15:22:40Z</time></trkpt><trkpt lat="50.66320670206821" lon="3.1389752655256182"><ele>23.0</ele><time>2026-04-19T15:22:42Z</time></trkpt><trkpt lat="50.663261145548105" lon="3.1390280289327634"><ele>23.0</ele><time>2026-04-19T15:22:43Z</time></trkpt><trkpt lat="50.66334949644504" lon="3.1391317188852867"><ele>23.0</ele><time>2026-04-19T15:22:45Z</time></trkpt><trkpt lat="50.66346200066629" lon="3.139252841300867"><ele>23.0</ele><time>2026-04-19T15:22:47Z</time></trkpt><trkpt lat="50.66355221051209" lon="3.1393240318017233"><ele>23.0</ele><time>2026-04-19T15:22:49Z</time></trkpt><trkpt lat="50.66364925221274" lon="3.1394149384113788"><ele>23.2</ele><time>2026-04-19T15:22:51Z</time></trkpt><trkpt lat="50.663753919055125" lon="3.1395025191619355"><ele>23.4</ele><time>2026-04-19T15:22:53Z</time></trkpt><trkpt lat="50.6638444547367" lon="3.1395919490905837"><ele>23.599999999999998</ele><time>2026-04-19T15:22:55Z</time></trkpt><trkpt lat="50.663905840288905" lon="3.139632943843085"><ele>23.799999999999997</ele><time>2026-04-19T15:22:56Z</time></trkpt><trkpt lat="50.66400803384178" lon="3.1397168647392846"><ele>24.0</ele><time>2026-04-19T15:22:58Z</time></trkpt><trkpt lat="50.664107629289354" lon="3.1397866750300967"><ele>24.0</ele><time>2026-04-19T15:23:00Z</time></trkpt><trkpt lat="50.66420198185666" lon="3.139865114341954"><ele>24.0</ele><time>2026-04-19T15:23:02Z</time></trkpt><trkpt lat="50.66429914974588" lon="3.1399438355918274"><ele>24.0</ele><time>2026-04-19T15:23:04Z</time></trkpt><trkpt lat="50.66440007781074" lon="3.1400403417986347"><ele>24.0</ele><time>2026-04-19T15:23:06Z</time></trkpt><trkpt lat="50.66449963216628" lon="3.140117030009261"><ele>24.0</ele><time>2026-04-19T15:23:08Z</time></trkpt><trkpt lat="50.664598477391245" lon="3.1402145297751667"><ele>24.0</ele><time>2026-04-19T15:23:10Z</time></trkpt><trkpt lat="50.664700369862516" lon="3.140300631346838"><ele>24.0</ele><time>2026-04-19T15:23:12Z</time></trkpt><trkpt lat="50.664807722147344" lon="3.140394810685732"><ele>24.0</ele><time>2026-04-19T15:23:14Z</time></trkpt><trkpt lat="50.66486488309601" lon="3.140436705251302"><ele>24.0</ele><time>2026-04-19T15:23:15Z</time></trkpt><trkpt lat="50.66496369141435" lon="3.140508558205782"><ele>24.0</ele><time>2026-04-19T15:23:17Z</time></trkpt><trkpt lat="50.66506536631616" lon="3.1405793785058806"><ele>24.0</ele><time>2026-04-19T15:23:18.999Z</time></trkpt><trkpt lat="50.665171733482495" lon="3.1406493855468707"><ele>24.0</ele><time>2026-04-19T15:23:20.999Z</time></trkpt><trkpt lat="50.665267456005424" lon="3.140740053475811"><ele>24.0</ele><time>2026-04-19T15:23:22.999Z</time></trkpt><trkpt lat="50.66536485620094" lon="3.140820246371464"><ele>24.0</ele><time>2026-04-19T15:23:24.999Z</time></trkpt><trkpt lat="50.66545402314631" lon="3.140890793480551"><ele>24.0</ele><time>2026-04-19T15:23:26.999Z</time></trkpt><trkpt lat="50.665534121818624" lon="3.140970406582104"><ele>24.166666666666668</ele><time>2026-04-19T15:23:28.999Z</time></trkpt><trkpt lat="50.66557865536751" lon="3.1410411949979635"><ele>24.333333333333336</ele><time>2026-04-19T15:23:30.999Z</time></trkpt><trkpt lat="50.665648134841085" lon="3.1411157729027432"><ele>24.5</ele><time>2026-04-19T15:24:08Z</time></trkpt><trkpt lat="50.66571478036526" lon="3.1411930534501447"><ele>24.666666666666668</ele><time>2026-04-19T15:24:11Z</time></trkpt><trkpt lat="50.665779351803884" lon="3.141228095252631"><ele>24.833333333333336</ele><time>2026-04-19T15:24:13Z</time></trkpt><trkpt lat="50.66584763974334" lon="3.14127751273947"><ele>25.0</ele><time>2026-04-19T15:24:15Z</time></trkpt><trkpt lat="50.66592009063577" lon="3.1413290274077004"><ele>25.000000000000004</ele><time>2026-04-19T15:24:17Z</time></trkpt><trkpt lat="50.666001624456285" lon="3.1413915698050325"><ele>25.0</ele><time>2026-04-19T15:24:19Z</time></trkpt><trkpt lat="50.66608733922598" lon="3.141456242592058"><ele>25.0</ele><time>2026-04-19T15:24:21Z</time></trkpt><trkpt lat="50.666168717913806" lon="3.1415155313547074"><ele>25.0</ele><time>2026-04-19T15:24:23Z</time></trkpt><trkpt lat="50.66624320167473" lon="3.1415843498798073"><ele>25.000000000000004</ele><time>2026-04-19T15:24:25Z</time></trkpt><trkpt lat="50.666322953936515" lon="3.141639605975559"><ele>25.0</ele><time>2026-04-19T15:24:27Z</time></trkpt><trkpt lat="50.66640871107107" lon="3.1416822024637763"><ele>24.6</ele><time>2026-04-19T15:24:29Z</time></trkpt><trkpt lat="50.6664896136126" lon="3.141739102233261"><ele>24.2</ele><time>2026-04-19T15:24:31Z</time></trkpt><trkpt lat="50.666555603071" lon="3.141787066104638"><ele>23.799999999999997</ele><time>2026-04-19T15:24:33Z</time></trkpt><trkpt lat="50.66669740966296" lon="3.1418482652662285"><ele>23.4</ele><time>2026-04-19T15:24:35Z</time></trkpt><trkpt lat="50.66677638011617" lon="3.1419239389407836"><ele>23.0</ele><time>2026-04-19T15:24:37Z</time></trkpt><trkpt lat="50.666860734498954" lon="3.141971074212765"><ele>22.599999999999998</ele><time>2026-04-19T15:24:39Z</time></trkpt><trkpt lat="50.666948524268825" lon="3.142031124160646"><ele>22.2</ele><time>2026-04-19T15:24:41Z</time></trkpt><trkpt lat="50.667041827651865" lon="3.1421115764894023"><ele>21.8</ele><time>2026-04-19T15:24:43Z</time></trkpt><trkpt lat="50.66712950831606" lon="3.1421747218572427"><ele>21.4</ele><time>2026-04-19T15:24:45Z</time></trkpt><trkpt lat="50.66721793862449" lon="3.1422425080312073"><ele>21.0</ele><time>2026-04-19T15:24:47Z</time></trkpt><trkpt lat="50.66730992578637" lon="3.1423011095881557"><ele>21.0</ele><time>2026-04-19T15:24:49Z</time></trkpt><trkpt lat="50.66739956499918" lon="3.1423605402113948"><ele>21.0</ele><time>2026-04-19T15:24:51Z</time></trkpt><trkpt lat="50.66750563457536" lon="3.1424115363335843"><ele>21.0</ele><time>2026-04-19T15:24:53Z</time></trkpt><trkpt lat="50.667612471022004" lon="3.142466553901566"><ele>21.0</ele><time>2026-04-19T15:24:55Z</time></trkpt><trkpt lat="50.66771767132557" lon="3.142527324696591"><ele>21.0</ele><time>2026-04-19T15:24:57Z</time></trkpt><trkpt lat="50.667821989805944" lon="3.142588235786333"><ele>21.25</ele><time>2026-04-19T15:24:59Z</time></trkpt><trkpt lat="50.66793249719904" lon="3.1426502590658223"><ele>21.5</ele><time>2026-04-19T15:25:01Z</time></trkpt><trkpt lat="50.66803840897581" lon="3.14270322010476"><ele>21.75</ele><time>2026-04-19T15:25:03Z</time></trkpt><trkpt lat="50.66813754065803" lon="3.1427704064875255"><ele>22.0</ele><time>2026-04-19T15:25:05Z</time></trkpt><trkpt lat="50.668247748221646" lon="3.142814029798506"><ele>22.0</ele><time>2026-04-19T15:25:07Z</time></trkpt><trkpt lat="50.668347982841894" lon="3.1428742105871654"><ele>22.0</ele><time>2026-04-19T15:25:09Z</time></trkpt><trkpt lat="50.66844307036804" lon="3.1429338996865073"><ele>22.0</ele><time>2026-04-19T15:25:11Z</time></trkpt><trkpt lat="50.66853788690083" lon="3.1429849421514597"><ele>22.0</ele><time>2026-04-19T15:25:13Z</time></trkpt><trkpt lat="50.66863549853406" lon="3.143037787569489"><ele>22.0</ele><time>2026-04-19T15:25:14.999Z</time></trkpt><trkpt lat="50.668737239427095" lon="3.1430924193146046"><ele>22.200000000000003</ele><time>2026-04-19T15:25:16.999Z</time></trkpt><trkpt lat="50.66884035636253" lon="3.143148311001229"><ele>22.4</ele><time>2026-04-19T15:25:18.999Z</time></trkpt><trkpt lat="50.66894253753707" lon="3.143208051766301"><ele>22.6</ele><time>2026-04-19T15:25:20.999Z</time></trkpt><trkpt lat="50.669047505018845" lon="3.143271943254819"><ele>22.799999999999997</ele><time>2026-04-19T15:25:22.999Z</time></trkpt><trkpt lat="50.669149806385605" lon="3.143333770972252"><ele>23.0</ele><time>2026-04-19T15:25:24.999Z</time></trkpt><trkpt lat="50.66924833138091" lon="3.1433847567393585"><ele>23.0</ele><time>2026-04-19T15:25:26.999Z</time></trkpt><trkpt lat="50.66934057697383" lon="3.1434395653286296"><ele>23.0</ele><time>2026-04-19T15:25:28.999Z</time></trkpt><trkpt lat="50.66943268331756" lon="3.143488513049395"><ele>23.0</ele><time>2026-04-19T15:25:30.999Z</time></trkpt><trkpt lat="50.669523420765664" lon="3.143547737071237"><ele>23.0</ele><time>2026-04-19T15:25:32.999Z</time></trkpt><trkpt lat="50.669608711244074" lon="3.143600282636053"><ele>23.0</ele><time>2026-04-19T15:25:34.999Z</time></trkpt><trkpt lat="50.669696563044695" lon="3.1436518721558797"><ele>22.599999999999998</ele><time>2026-04-19T15:25:36.999Z</time></trkpt><trkpt lat="50.669783767064985" lon="3.143706374644008"><ele>22.2</ele><time>2026-04-19T15:25:38.999Z</time></trkpt><trkpt lat="50.669873114087906" lon="3.143772821951045"><ele>21.8</ele><time>2026-04-19T15:25:41Z</time></trkpt><trkpt lat="50.66996499614153" lon="3.1438437137738813"><ele>21.4</ele><time>2026-04-19T15:25:43Z</time></trkpt><trkpt lat="50.67006807776903" lon="3.1439020475806427"><ele>21.0</ele><time>2026-04-19T15:25:45Z</time></trkpt><trkpt lat="50.670157592415464" lon="3.143966455101238"><ele>21.0</ele><time>2026-04-19T15:25:47Z</time></trkpt><trkpt lat="50.67025239113837" lon="3.1440424386507937"><ele>21.0</ele><time>2026-04-19T15:25:49Z</time></trkpt><trkpt lat="50.670343189957265" lon="3.1441251254984572"><ele>21.0</ele><time>2026-04-19T15:25:51Z</time></trkpt><trkpt lat="50.670438764533856" lon="3.1442012322235926"><ele>21.0</ele><time>2026-04-19T15:25:53Z</time></trkpt><trkpt lat="50.67054978033806" lon="3.1443024913751354"><ele>21.0</ele><time>2026-04-19T15:25:55Z</time></trkpt><trkpt lat="50.67064229238791" lon="3.144308314602421"><ele>21.0</ele><time>2026-04-19T15:25:57Z</time></trkpt><trkpt lat="50.67073963584746" lon="3.1443849333478218"><ele>21.0</ele><time>2026-04-19T15:25:59Z</time></trkpt><trkpt lat="50.67084407239324" lon="3.1444552002848876"><ele>21.0</ele><time>2026-04-19T15:26:01Z</time></trkpt><trkpt lat="50.670948178062574" lon="3.144523317949506"><ele>21.0</ele><time>2026-04-19T15:26:03Z</time></trkpt><trkpt lat="50.671052924699524" lon="3.1445742373885874"><ele>21.0</ele><time>2026-04-19T15:26:05Z</time></trkpt><trkpt lat="50.67116984971518" lon="3.144631380310823"><ele>21.0</ele><time>2026-04-19T15:26:07Z</time></trkpt><trkpt lat="50.67128295695636" lon="3.144689737844968"><ele>21.0</ele><time>2026-04-19T15:26:09Z</time></trkpt><trkpt lat="50.671397113719024" lon="3.144745366606294"><ele>21.0</ele><time>2026-04-19T15:26:11Z</time></trkpt><trkpt lat="50.67150951662423" lon="3.1447834661332226"><ele>21.0</ele><time>2026-04-19T15:26:13Z</time></trkpt><trkpt lat="50.671613891754085" lon="3.144828810308969"><ele>21.0</ele><time>2026-04-19T15:26:15Z</time></trkpt><trkpt lat="50.67172481591542" lon="3.1448730657705735"><ele>21.0</ele><time>2026-04-19T15:26:17Z</time></trkpt><trkpt lat="50.67183547734653" lon="3.1449264543097706"><ele>21.0</ele><time>2026-04-19T15:26:19Z</time></trkpt><trkpt lat="50.67195513488752" lon="3.144967615270048"><ele>21.0</ele><time>2026-04-19T15:26:21Z</time></trkpt><trkpt lat="50.67207408666629" lon="3.145009944913342"><ele>21.75</ele><time>2026-04-19T15:26:23Z</time></trkpt><trkpt lat="50.67219043911161" lon="3.1450535857382507"><ele>22.5</ele><time>2026-04-19T15:26:25Z</time></trkpt><trkpt lat="50.672304247344215" lon="3.14510355930717"><ele>23.25</ele><time>2026-04-19T15:26:27Z</time></trkpt><trkpt lat="50.6724101832885" lon="3.145163439015206"><ele>24.0</ele><time>2026-04-19T15:26:29Z</time></trkpt><trkpt lat="50.67250713123216" lon="3.145232431878716"><ele>24.0</ele><time>2026-04-19T15:26:31Z</time></trkpt><trkpt lat="50.672598301413124" lon="3.145295976943882"><ele>24.0</ele><time>2026-04-19T15:26:33Z</time></trkpt><trkpt lat="50.672693202264334" lon="3.1453508709722064"><ele>24.0</ele><time>2026-04-19T15:26:35Z</time></trkpt><trkpt lat="50.67278411554172" lon="3.1454195647293313"><ele>24.0</ele><time>2026-04-19T15:26:37Z</time></trkpt><trkpt lat="50.67287020421709" lon="3.145470360814985"><ele>24.0</ele><time>2026-04-19T15:26:39Z</time></trkpt><trkpt lat="50.672950679414335" lon="3.145537979628197"><ele>24.2</ele><time>2026-04-19T15:26:41Z</time></trkpt><trkpt lat="50.67303467957837" lon="3.145606153646222"><ele>24.4</ele><time>2026-04-19T15:26:43Z</time></trkpt><trkpt lat="50.673123222651384" lon="3.1456785122841997"><ele>24.6</ele><time>2026-04-19T15:26:45Z</time></trkpt><trkpt lat="50.67321339370786" lon="3.1457557568779633"><ele>24.8</ele><time>2026-04-19T15:26:47Z</time></trkpt><trkpt lat="50.673289300065605" lon="3.1458521713396164"><ele>25.0</ele><time>2026-04-19T15:26:49Z</time></trkpt><trkpt lat="50.67335772907062" lon="3.1459219324350154"><ele>25.28571428571429</ele><time>2026-04-19T15:26:51Z</time></trkpt><trkpt lat="50.6734151014835" lon="3.1459824616162098"><ele>25.571428571428573</ele><time>2026-04-19T15:27:34.999Z</time></trkpt><trkpt lat="50.67346080606475" lon="3.146056281516681"><ele>25.857142857142858</ele><time>2026-04-19T15:27:37.999Z</time></trkpt><trkpt lat="50.673515647482645" lon="3.1461230096347967"><ele>26.142857142857146</ele><time>2026-04-19T15:27:39.999Z</time></trkpt><trkpt lat="50.673567538432145" lon="3.146182793936463"><ele>26.428571428571427</ele><time>2026-04-19T15:27:41.999Z</time></trkpt><trkpt lat="50.673621701492614" lon="3.1462853419709185"><ele>26.714285714285715</ele><time>2026-04-19T15:27:43.999Z</time></trkpt><trkpt lat="50.67369992915853" lon="3.146374264965034"><ele>27.0</ele><time>2026-04-19T15:27:45.999Z</time></trkpt><trkpt lat="50.67378478730058" lon="3.146483319364042"><ele>27.166666666666668</ele><time>2026-04-19T15:27:48Z</time></trkpt><trkpt lat="50.67386271685791" lon="3.146580074255008"><ele>27.333333333333336</ele><time>2026-04-19T15:27:50Z</time></trkpt><trkpt lat="50.67392397578634" lon="3.146640564699863"><ele>27.5</ele><time>2026-04-19T15:27:52Z</time></trkpt><trkpt lat="50.67399856806518" lon="3.146664773379513"><ele>27.666666666666668</ele><time>2026-04-19T15:27:57Z</time></trkpt><trkpt lat="50.67408949523674" lon="3.146617452835802"><ele>27.833333333333336</ele><time>2026-04-19T15:28:00Z</time></trkpt><trkpt lat="50.6741561492789" lon="3.146517141517243"><ele>28.0</ele><time>2026-04-19T15:28:02Z</time></trkpt><trkpt lat="50.67423507700597" lon="3.146383325246427"><ele>28.0</ele><time>2026-04-19T15:28:04Z</time></trkpt><trkpt lat="50.674286899938956" lon="3.1463233277130684"><ele>27.999999999999996</ele><time>2026-04-19T15:28:05Z</time></trkpt><trkpt lat="50.67436092767308" lon="3.146184872724804"><ele>27.999999999999996</ele><time>2026-04-19T15:28:07Z</time></trkpt><trkpt lat="50.67443122891015" lon="3.1460495833687805"><ele>28.0</ele><time>2026-04-19T15:28:09Z</time></trkpt><trkpt lat="50.6744966819799" lon="3.1458815572714407"><ele>28.0</ele><time>2026-04-19T15:28:11Z</time></trkpt><trkpt lat="50.67457781856128" lon="3.145753580136106"><ele>28.166666666666668</ele><time>2026-04-19T15:28:13Z</time></trkpt><trkpt lat="50.67462277953597" lon="3.1456767576401066"><ele>28.333333333333336</ele><time>2026-04-19T15:28:14Z</time></trkpt><trkpt lat="50.67470721934495" lon="3.14555981331461"><ele>28.5</ele><time>2026-04-19T15:28:16Z</time></trkpt><trkpt lat="50.67476332416654" lon="3.1454632054554397"><ele>28.666666666666664</ele><time>2026-04-19T15:28:18Z</time></trkpt><trkpt lat="50.674818755499864" lon="3.145366543702904"><ele>28.833333333333332</ele><time>2026-04-19T15:28:22Z</time></trkpt><trkpt lat="50.674878642527354" lon="3.145261764866795"><ele>29.0</ele><time>2026-04-19T15:28:25Z</time></trkpt><trkpt lat="50.67493577567601" lon="3.1451617818709474"><ele>29.0</ele><time>2026-04-19T15:28:27Z</time></trkpt><trkpt lat="50.675010416588414" lon="3.1450311603426204"><ele>29.0</ele><time>2026-04-19T15:28:29Z</time></trkpt><trkpt lat="50.67507257643296" lon="3.144895242387819"><ele>29.0</ele><time>2026-04-19T15:28:31Z</time></trkpt><trkpt lat="50.6751503064958" lon="3.144779955942722"><ele>29.0</ele><time>2026-04-19T15:28:33Z</time></trkpt><trkpt lat="50.67522381664017" lon="3.1446467017078534"><ele>29.0</ele><time>2026-04-19T15:28:35Z</time></trkpt><trkpt lat="50.67529388134019" lon="3.1445388252543083"><ele>29.166666666666664</ele><time>2026-04-19T15:28:37Z</time></trkpt><trkpt lat="50.67535638496222" lon="3.1444251036175275"><ele>29.333333333333332</ele><time>2026-04-19T15:28:39Z</time></trkpt><trkpt lat="50.675421359882996" lon="3.1443496639139004"><ele>29.5</ele><time>2026-04-19T15:28:41Z</time></trkpt><trkpt lat="50.675457210162854" lon="3.144255781081669"><ele>29.666666666666664</ele><time>2026-04-19T15:28:43Z</time></trkpt><trkpt lat="50.6755138002098" lon="3.14414390098426"><ele>29.833333333333332</ele><time>2026-04-19T15:28:45Z</time></trkpt><trkpt lat="50.67557678023943" lon="3.1440390655243196"><ele>30.0</ele><time>2026-04-19T15:28:47Z</time></trkpt><trkpt lat="50.67564562480327" lon="3.143916391777361"><ele>30.0</ele><time>2026-04-19T15:28:49Z</time></trkpt><trkpt lat="50.67571088050111" lon="3.143783262419445"><ele>30.0</ele><time>2026-04-19T15:28:51Z</time></trkpt><trkpt lat="50.67578529183761" lon="3.1436492323551475"><ele>30.0</ele><time>2026-04-19T15:28:53Z</time></trkpt><trkpt lat="50.67586541716472" lon="3.1435269987532375"><ele>30.0</ele><time>2026-04-19T15:28:55Z</time></trkpt><trkpt lat="50.67591887736254" lon="3.143377684742743"><ele>30.0</ele><time>2026-04-19T15:28:57Z</time></trkpt><trkpt lat="50.6759979780999" lon="3.1432710706090075"><ele>30.0</ele><time>2026-04-19T15:28:59Z</time></trkpt><trkpt lat="50.676072756822954" lon="3.143145247998273"><ele>30.0</ele><time>2026-04-19T15:29:01Z</time></trkpt><trkpt lat="50.6761477326544" lon="3.143028119597414"><ele>30.0</ele><time>2026-04-19T15:29:03Z</time></trkpt><trkpt lat="50.67620487025954" lon="3.142895969420075"><ele>30.0</ele><time>2026-04-19T15:29:05Z</time></trkpt><trkpt lat="50.67627753650156" lon="3.1427927751683433"><ele>30.0</ele><time>2026-04-19T15:29:07Z</time></trkpt><trkpt lat="50.6763532021464" lon="3.14265695633457"><ele>30.2</ele><time>2026-04-19T15:29:09Z</time></trkpt><trkpt lat="50.676449736354805" lon="3.1425220031633443"><ele>30.4</ele><time>2026-04-19T15:29:11Z</time></trkpt><trkpt lat="50.67650660842682" lon="3.1423865190211546"><ele>30.6</ele><time>2026-04-19T15:29:13Z</time></trkpt><trkpt lat="50.67659592434752" lon="3.1422845251508487"><ele>30.8</ele><time>2026-04-19T15:29:15Z</time></trkpt><trkpt lat="50.67665756477714" lon="3.14224396125982"><ele>31.0</ele><time>2026-04-19T15:29:16Z</time></trkpt><trkpt lat="50.676726813016764" lon="3.1420929296275393"><ele>30.6</ele><time>2026-04-19T15:29:18Z</time></trkpt><trkpt lat="50.67680216284515" lon="3.1419583866624246"><ele>30.200000000000003</ele><time>2026-04-19T15:29:20Z</time></trkpt><trkpt lat="50.67687264420809" lon="3.1418117799720187"><ele>29.799999999999997</ele><time>2026-04-19T15:29:22Z</time></trkpt><trkpt lat="50.67691391346226" lon="3.141732313190187"><ele>29.4</ele><time>2026-04-19T15:29:23Z</time></trkpt><trkpt lat="50.67698466794783" lon="3.1415834366747575"><ele>29.0</ele><time>2026-04-19T15:29:25Z</time></trkpt><trkpt lat="50.677058956792166" lon="3.1414447908094596"><ele>29.799999999999997</ele><time>2026-04-19T15:29:27Z</time></trkpt><trkpt lat="50.67712362654369" lon="3.1412781026714214"><ele>30.599999999999998</ele><time>2026-04-19T15:29:29Z</time></trkpt><trkpt lat="50.677210263487055" lon="3.1411632759332844"><ele>31.4</ele><time>2026-04-19T15:29:31Z</time></trkpt><trkpt lat="50.67727704605684" lon="3.141046395208573"><ele>32.199999999999996</ele><time>2026-04-19T15:29:33Z</time></trkpt><trkpt lat="50.677327916959136" lon="3.1409573625290625"><ele>33.0</ele><time>2026-04-19T15:29:35Z</time></trkpt><trkpt lat="50.677284848777354" lon="3.1410327393664956"><ele>33.0</ele><time>2026-04-19T15:29:42.999Z</time></trkpt></trkseg></trk></gpx>